<?xml version='1.0' encoding='utf-8'?>
<gpx xmlns="http://www.topografix.com/GPX/1/1" xmlns:xsi="http://www.w3.org/2001/XMLSchema-instance" version="v1.1.5" creator="iTravel Tech Inc. - http://www.itravel-tech.com" xsi:schemaLocation="http://www.topografix.com/GPX/1/1 http://www.topografix.com/GPX/1/1/gpx.xsd http://www.topografix.com/GPX/gpx_overlay/0/3 http://www.topografix.com/GPX/gpx_overlay/0/3/gpx_overlay.xsd http://www.topografix.com/GPX/gpx_modified/0/1 http://www.topografix.com/GPX/gpx_modified/0/1/gpx_modified.xsd">
<trk>
<name>Holux2011/10/11_09:15</name>
<trkseg>
<trkpt lat="44.614887" lon="33.737717">
<ele>224.4</ele>
<time>2011-10-11T06:15:08Z</time>
<desc>lat.=44.614887, lon.=33.737717, Alt.=118.762756m. Speed=0.288000m/h.</desc>
<speed>0.080000</speed>
</trkpt>
<trkpt lat="44.614750" lon="33.737076">
<ele>210.8</ele>
<time>2011-10-11T06:16:33Z</time>
<desc>lat.=44.614750, lon.=33.737076, Alt.=195.064575m. Speed=0.504000m/h.</desc>
<speed>0.140000</speed>
</trkpt>
<trkpt lat="44.614494" lon="33.736732">
<ele>202.4</ele>
<time>2011-10-11T06:17:23Z</time>
<desc>lat.=44.614494, lon.=33.736732, Alt.=205.349731m. Speed=0.756000m/h.</desc>
<speed>0.210000</speed>
</trkpt>
<trkpt lat="44.614452" lon="33.737110">
<ele>211.5</ele>
<time>2011-10-11T06:17:58Z</time>
<desc>lat.=44.614452, lon.=33.737110, Alt.=210.119263m. Speed=1.008000m/h.</desc>
<speed>0.280000</speed>
</trkpt>
<trkpt lat="44.615105" lon="33.736874">
<ele>203.0</ele>
<time>2011-10-11T06:22:23Z</time>
<desc>lat.=44.615105, lon.=33.736874, Alt.=201.232544m. Speed=10.944000m/h.</desc>
<speed>3.040000</speed>
</trkpt>
<trkpt lat="44.616188" lon="33.737545">
<ele>200.5</ele>
<time>2011-10-11T06:22:58Z</time>
<desc>lat.=44.616188, lon.=33.737545, Alt.=209.392700m. Speed=5.292000m/h.</desc>
<speed>1.470000</speed>
</trkpt>
<trkpt lat="44.616348" lon="33.737869">
<ele>195.3</ele>
<time>2011-10-11T06:23:18Z</time>
<desc>lat.=44.616348, lon.=33.737869, Alt.=214.798950m. Speed=8.136000m/h.</desc>
<speed>2.260000</speed>
</trkpt>
<trkpt lat="44.616299" lon="33.738106">
<ele>194.2</ele>
<time>2011-10-11T06:24:08Z</time>
<desc>lat.=44.616299, lon.=33.738106, Alt.=216.822388m. Speed=0.108000m/h.</desc>
<speed>0.030000</speed>
</trkpt>
<trkpt lat="44.616573" lon="33.738068">
<ele>191.9</ele>
<time>2011-10-11T06:26:03Z</time>
<desc>lat.=44.616573, lon.=33.738068, Alt.=184.283325m. Speed=3.132000m/h.</desc>
<speed>0.870000</speed>
</trkpt>
<trkpt lat="44.616314" lon="33.738010">
<ele>194.5</ele>
<time>2011-10-11T06:26:53Z</time>
<desc>lat.=44.616314, lon.=33.738010, Alt.=182.107544m. Speed=0.900000m/h.</desc>
<speed>0.250000</speed>
</trkpt>
<trkpt lat="44.616383" lon="33.738094">
<ele>193.5</ele>
<time>2011-10-11T06:28:18Z</time>
<desc>lat.=44.616383, lon.=33.738094, Alt.=171.455200m. Speed=0.324000m/h.</desc>
<speed>0.090000</speed>
</trkpt>
<trkpt lat="44.616367" lon="33.737930">
<ele>194.6</ele>
<time>2011-10-11T06:30:28Z</time>
<desc>lat.=44.616367, lon.=33.737930, Alt.=154.189575m. Speed=0.216000m/h.</desc>
<speed>0.060000</speed>
</trkpt>
<trkpt lat="44.615917" lon="33.738342">
<ele>196.5</ele>
<time>2011-10-11T06:38:38Z</time>
<desc>lat.=44.615917, lon.=33.738342, Alt.=161.744263m. Speed=2.016000m/h.</desc>
<speed>0.560000</speed>
</trkpt>
<trkpt lat="44.615578" lon="33.738152">
<ele>210.3</ele>
<time>2011-10-11T06:40:13Z</time>
<desc>lat.=44.615578, lon.=33.738152, Alt.=177.345825m. Speed=2.952000m/h.</desc>
<speed>0.820000</speed>
</trkpt>
<trkpt lat="44.614773" lon="33.738194">
<ele>228.5</ele>
<time>2011-10-11T06:42:03Z</time>
<desc>lat.=44.614773, lon.=33.738194, Alt.=193.474731m. Speed=2.808000m/h.</desc>
<speed>0.780000</speed>
</trkpt>
<trkpt lat="44.614609" lon="33.737923">
<ele>233.2</ele>
<time>2011-10-11T06:43:08Z</time>
<desc>lat.=44.614609, lon.=33.737923, Alt.=205.970825m. Speed=0.864000m/h.</desc>
<speed>0.240000</speed>
</trkpt>
<trkpt lat="44.614071" lon="33.737949">
<ele>242.7</ele>
<time>2011-10-11T06:45:03Z</time>
<desc>lat.=44.614071, lon.=33.737949, Alt.=223.295044m. Speed=2.520000m/h.</desc>
<speed>0.700000</speed>
</trkpt>
<trkpt lat="44.613861" lon="33.738380">
<ele>258.3</ele>
<time>2011-10-11T06:46:43Z</time>
<desc>lat.=44.613861, lon.=33.738380, Alt.=243.982544m. Speed=4.068000m/h.</desc>
<speed>1.130000</speed>
</trkpt>
<trkpt lat="44.613216" lon="33.738525">
<ele>284.1</ele>
<time>2011-10-11T06:51:43Z</time>
<desc>lat.=44.613216, lon.=33.738525, Alt.=276.082275m. Speed=1.440000m/h.</desc>
<speed>0.400000</speed>
</trkpt>
<trkpt lat="44.612568" lon="33.739094">
<ele>292.3</ele>
<time>2011-10-11T06:53:03Z</time>
<desc>lat.=44.612568, lon.=33.739094, Alt.=295.574463m. Speed=5.832000m/h.</desc>
<speed>1.620000</speed>
</trkpt>
<trkpt lat="44.612129" lon="33.739235">
<ele>301.2</ele>
<time>2011-10-11T06:53:53Z</time>
<desc>lat.=44.612129, lon.=33.739235, Alt.=303.230713m. Speed=2.520000m/h.</desc>
<speed>0.700000</speed>
</trkpt>
<trkpt lat="44.611443" lon="33.740391">
<ele>284.8</ele>
<time>2011-10-11T06:56:28Z</time>
<desc>lat.=44.611443, lon.=33.740391, Alt.=293.144775m. Speed=0.216000m/h.</desc>
<speed>0.060000</speed>
</trkpt>
<trkpt lat="44.611382" lon="33.740181">
<ele>298.6</ele>
<time>2011-10-11T06:58:53Z</time>
<desc>lat.=44.611382, lon.=33.740181, Alt.=296.668213m. Speed=0.828000m/h.</desc>
<speed>0.230000</speed>
</trkpt>
<trkpt lat="44.610733" lon="33.740715">
<ele>301.0</ele>
<time>2011-10-11T07:17:58Z</time>
<desc>lat.=44.610733, lon.=33.740715, Alt.=284.801025m. Speed=4.968000m/h.</desc>
<speed>1.380000</speed>
</trkpt>
<trkpt lat="44.609207" lon="33.741070">
<ele>323.3</ele>
<time>2011-10-11T07:22:53Z</time>
<desc>lat.=44.609207, lon.=33.741070, Alt.=321.090088m. Speed=3.276000m/h.</desc>
<speed>0.910000</speed>
</trkpt>
<trkpt lat="44.609230" lon="33.741276">
<ele>301.9</ele>
<time>2011-10-11T07:23:33Z</time>
<desc>lat.=44.609230, lon.=33.741276, Alt.=321.886963m. Speed=1.332000m/h.</desc>
<speed>0.370000</speed>
</trkpt>
<trkpt lat="44.608643" lon="33.741055">
<ele>313.1</ele>
<time>2011-10-11T07:30:08Z</time>
<desc>lat.=44.608643, lon.=33.741055, Alt.=325.965088m. Speed=2.880000m/h.</desc>
<speed>0.800000</speed>
</trkpt>
<trkpt lat="44.608452" lon="33.740597">
<ele>316.5</ele>
<time>2011-10-11T07:34:23Z</time>
<desc>lat.=44.608452, lon.=33.740597, Alt.=326.441650m. Speed=3.672000m/h.</desc>
<speed>1.020000</speed>
</trkpt>
<trkpt lat="44.608128" lon="33.740459">
<ele>309.3</ele>
<time>2011-10-11T07:34:48Z</time>
<desc>lat.=44.608128, lon.=33.740459, Alt.=325.863525m. Speed=2.628000m/h.</desc>
<speed>0.730000</speed>
</trkpt>
<trkpt lat="44.608372" lon="33.740650">
<ele>311.8</ele>
<time>2011-10-11T07:34:53Z</time>
<desc>lat.=44.608372, lon.=33.740650, Alt.=325.941650m. Speed=1.368000m/h.</desc>
<speed>0.380000</speed>
</trkpt>
<trkpt lat="44.608414" lon="33.740524">
<ele>316.5</ele>
<time>2011-10-11T07:35:33Z</time>
<desc>lat.=44.608414, lon.=33.740524, Alt.=326.535400m. Speed=1.332000m/h.</desc>
<speed>0.370000</speed>
</trkpt>
<trkpt lat="44.607552" lon="33.740154">
<ele>310.8</ele>
<time>2011-10-11T07:40:13Z</time>
<desc>lat.=44.607552, lon.=33.740154, Alt.=321.363525m. Speed=1.152000m/h.</desc>
<speed>0.320000</speed>
</trkpt>
<trkpt lat="44.607552" lon="33.739746">
<ele>327.9</ele>
<time>2011-10-11T07:41:43Z</time>
<desc>lat.=44.607552, lon.=33.739746, Alt.=322.894775m. Speed=0.324000m/h.</desc>
<speed>0.090000</speed>
</trkpt>
<trkpt lat="44.607090" lon="33.739609">
<ele>314.8</ele>
<time>2011-10-11T07:42:43Z</time>
<desc>lat.=44.607090, lon.=33.739609, Alt.=322.277588m. Speed=0.396000m/h.</desc>
<speed>0.110000</speed>
</trkpt>
<trkpt lat="44.607052" lon="33.739330">
<ele>321.0</ele>
<time>2011-10-11T07:43:18Z</time>
<desc>lat.=44.607052, lon.=33.739330, Alt.=325.340088m. Speed=1.584000m/h.</desc>
<speed>0.440000</speed>
</trkpt>
<trkpt lat="44.606724" lon="33.738972">
<ele>324.5</ele>
<time>2011-10-11T07:44:33Z</time>
<desc>lat.=44.606724, lon.=33.738972, Alt.=330.590088m. Speed=0.504000m/h.</desc>
<speed>0.140000</speed>
</trkpt>
<trkpt lat="44.606724" lon="33.738632">
<ele>332.2</ele>
<time>2011-10-11T07:45:08Z</time>
<desc>lat.=44.606724, lon.=33.738632, Alt.=330.379150m. Speed=1.188000m/h.</desc>
<speed>0.330000</speed>
</trkpt>
<trkpt lat="44.606243" lon="33.738766">
<ele>317.8</ele>
<time>2011-10-11T07:46:23Z</time>
<desc>lat.=44.606243, lon.=33.738766, Alt.=330.230713m. Speed=3.096000m/h.</desc>
<speed>0.860000</speed>
</trkpt>
<trkpt lat="44.606449" lon="33.738457">
<ele>324.6</ele>
<time>2011-10-11T07:52:18Z</time>
<desc>lat.=44.606449, lon.=33.738457, Alt.=316.136963m. Speed=0.648000m/h.</desc>
<speed>0.180000</speed>
</trkpt>
<trkpt lat="44.606190" lon="33.738724">
<ele>316.4</ele>
<time>2011-10-11T07:54:48Z</time>
<desc>lat.=44.606190, lon.=33.738724, Alt.=313.074463m. Speed=0.036000m/h.</desc>
<speed>0.010000</speed>
</trkpt>
<trkpt lat="44.606483" lon="33.738934">
<ele>319.7</ele>
<time>2011-10-11T07:56:38Z</time>
<desc>lat.=44.606483, lon.=33.738934, Alt.=316.777588m. Speed=0.468000m/h.</desc>
<speed>0.130000</speed>
</trkpt>
<trkpt lat="44.606209" lon="33.738773">
<ele>316.6</ele>
<time>2011-10-11T07:59:28Z</time>
<desc>lat.=44.606209, lon.=33.738773, Alt.=319.230713m. Speed=3.024000m/h.</desc>
<speed>0.840000</speed>
</trkpt>
<trkpt lat="44.606556" lon="33.739449">
<ele>305.3</ele>
<time>2011-10-11T08:02:23Z</time>
<desc>lat.=44.606556, lon.=33.739449, Alt.=316.957275m. Speed=3.420000m/h.</desc>
<speed>0.950000</speed>
</trkpt>
<trkpt lat="44.606861" lon="33.740814">
<ele>279.8</ele>
<time>2011-10-11T08:04:08Z</time>
<desc>lat.=44.606861, lon.=33.740814, Alt.=278.847900m. Speed=2.520000m/h.</desc>
<speed>0.700000</speed>
</trkpt>
<trkpt lat="44.606754" lon="33.741535">
<ele>259.7</ele>
<time>2011-10-11T08:06:33Z</time>
<desc>lat.=44.606754, lon.=33.741535, Alt.=276.105713m. Speed=3.960000m/h.</desc>
<speed>1.100000</speed>
</trkpt>
<trkpt lat="44.607124" lon="33.742382">
<ele>242.3</ele>
<time>2011-10-11T08:07:28Z</time>
<desc>lat.=44.607124, lon.=33.742382, Alt.=257.746338m. Speed=5.508000m/h.</desc>
<speed>1.530000</speed>
</trkpt>
<trkpt lat="44.608643" lon="33.743534">
<ele>229.7</ele>
<time>2011-10-11T08:09:48Z</time>
<desc>lat.=44.608643, lon.=33.743534, Alt.=235.795044m. Speed=4.608000m/h.</desc>
<speed>1.280000</speed>
</trkpt>
<trkpt lat="44.609974" lon="33.743793">
<ele>223.8</ele>
<time>2011-10-11T08:11:38Z</time>
<desc>lat.=44.609974, lon.=33.743793, Alt.=227.349731m. Speed=6.840000m/h.</desc>
<speed>1.900000</speed>
</trkpt>
<trkpt lat="44.611950" lon="33.742054">
<ele>214.4</ele>
<time>2011-10-11T08:14:28Z</time>
<desc>lat.=44.611950, lon.=33.742054, Alt.=237.720825m. Speed=4.500000m/h.</desc>
<speed>1.250000</speed>
</trkpt>
<trkpt lat="44.612144" lon="33.742046">
<ele>210.9</ele>
<time>2011-10-11T08:14:43Z</time>
<desc>lat.=44.612144, lon.=33.742046, Alt.=236.439575m. Speed=5.328000m/h.</desc>
<speed>1.480000</speed>
</trkpt>
<trkpt lat="44.613087" lon="33.740677">
<ele>208.8</ele>
<time>2011-10-11T08:16:18Z</time>
<desc>lat.=44.613087, lon.=33.740677, Alt.=216.959106m. Speed=3.924000m/h.</desc>
<speed>1.090000</speed>
</trkpt>
<trkpt lat="44.615170" lon="33.739063">
<ele>197.7</ele>
<time>2011-10-11T08:19:08Z</time>
<desc>lat.=44.615170, lon.=33.739063, Alt.=198.416138m. Speed=8.388000m/h.</desc>
<speed>2.330000</speed>
</trkpt>
<trkpt lat="44.615875" lon="33.738323">
<ele>197.7</ele>
<time>2011-10-11T08:21:48Z</time>
<desc>lat.=44.615875, lon.=33.738323, Alt.=201.091919m. Speed=0.288000m/h.</desc>
<speed>0.080000</speed>
</trkpt>
<trkpt lat="44.615849" lon="33.738464">
<ele>195.8</ele>
<time>2011-10-11T08:22:08Z</time>
<desc>lat.=44.615849, lon.=33.738464, Alt.=201.162231m. Speed=1.656000m/h.</desc>
<speed>0.460000</speed>
</trkpt>
<trkpt lat="44.615864" lon="33.738247">
<ele>200.1</ele>
<time>2011-10-11T08:23:53Z</time>
<desc>lat.=44.615864, lon.=33.738247, Alt.=202.849731m. Speed=0.396000m/h.</desc>
<speed>0.110000</speed>
</trkpt>
<trkpt lat="44.616169" lon="33.738293">
<ele>194.4</ele>
<time>2011-10-11T08:26:38Z</time>
<desc>lat.=44.616169, lon.=33.738293, Alt.=203.373169m. Speed=16.091999m/h.</desc>
<speed>4.470000</speed>
</trkpt>
<trkpt lat="44.616631" lon="33.737823">
<ele>192.2</ele>
<time>2011-10-11T08:26:58Z</time>
<desc>lat.=44.616631, lon.=33.737823, Alt.=202.130981m. Speed=9.720000m/h.</desc>
<speed>2.700000</speed>
</trkpt>
<trkpt lat="44.616680" lon="33.737942">
<ele>191.3</ele>
<time>2011-10-11T08:27:03Z</time>
<desc>lat.=44.616680, lon.=33.737942, Alt.=199.900513m. Speed=9.000000m/h.</desc>
<speed>2.500000</speed>
</trkpt>
<trkpt lat="44.616470" lon="33.737713">
<ele>194.7</ele>
<time>2011-10-11T08:46:23Z</time>
<desc>lat.=44.616470, lon.=33.737713, Alt.=183.365356m. Speed=1.008000m/h.</desc>
<speed>0.280000</speed>
</trkpt>
<trkpt lat="44.616333" lon="33.737888">
<ele>195.3</ele>
<time>2011-10-11T08:57:28Z</time>
<desc>lat.=44.616333, lon.=33.737888, Alt.=179.295044m. Speed=0.504000m/h.</desc>
<speed>0.140000</speed>
</trkpt>
<trkpt lat="44.616409" lon="33.737766">
<ele>195.3</ele>
<time>2011-10-11T08:58:13Z</time>
<desc>lat.=44.616409, lon.=33.737766, Alt.=179.388794m. Speed=0.180000m/h.</desc>
<speed>0.050000</speed>
</trkpt>
<trkpt lat="44.617062" lon="33.737961">
<ele>190.0</ele>
<time>2011-10-11T08:58:48Z</time>
<desc>lat.=44.617062, lon.=33.737961, Alt.=179.568481m. Speed=20.952000m/h.</desc>
<speed>5.820000</speed>
</trkpt>
<trkpt lat="44.619324" lon="33.737366">
<ele>184.2</ele>
<time>2011-10-11T08:59:13Z</time>
<desc>lat.=44.619324, lon.=33.737366, Alt.=177.240356m. Speed=35.424000m/h.</desc>
<speed>9.840000</speed>
</trkpt>
<trkpt lat="44.621078" lon="33.737587">
<ele>179.9</ele>
<time>2011-10-11T08:59:43Z</time>
<desc>lat.=44.621078, lon.=33.737587, Alt.=180.056763m. Speed=15.660000m/h.</desc>
<speed>4.350000</speed>
</trkpt>
<trkpt lat="44.621536" lon="33.738590">
<ele>180.7</ele>
<time>2011-10-11T08:59:58Z</time>
<desc>lat.=44.621536, lon.=33.738590, Alt.=177.755981m. Speed=28.188000m/h.</desc>
<speed>7.830000</speed>
</trkpt>
<trkpt lat="44.622250" lon="33.739372">
<ele>185.2</ele>
<time>2011-10-11T09:00:08Z</time>
<desc>lat.=44.622250, lon.=33.739372, Alt.=177.201294m. Speed=39.240002m/h.</desc>
<speed>10.900000</speed>
</trkpt>
<trkpt lat="44.623898" lon="33.740517">
<ele>176.4</ele>
<time>2011-10-11T09:00:33Z</time>
<desc>lat.=44.623898, lon.=33.740517, Alt.=176.595825m. Speed=11.772000m/h.</desc>
<speed>3.270000</speed>
</trkpt>
<trkpt lat="44.624104" lon="33.741207">
<ele>176.4</ele>
<time>2011-10-11T09:00:43Z</time>
<desc>lat.=44.624104, lon.=33.741207, Alt.=176.865356m. Speed=27.035999m/h.</desc>
<speed>7.510000</speed>
</trkpt>
<trkpt lat="44.624355" lon="33.743538">
<ele>178.0</ele>
<time>2011-10-11T09:01:03Z</time>
<desc>lat.=44.624355, lon.=33.743538, Alt.=177.869263m. Speed=29.844000m/h.</desc>
<speed>8.290000</speed>
</trkpt>
<trkpt lat="44.624748" lon="33.744785">
<ele>179.1</ele>
<time>2011-10-11T09:01:23Z</time>
<desc>lat.=44.624748, lon.=33.744785, Alt.=176.463013m. Speed=16.704000m/h.</desc>
<speed>4.640000</speed>
</trkpt>
<trkpt lat="44.624733" lon="33.745686">
<ele>176.3</ele>
<time>2011-10-11T09:01:38Z</time>
<desc>lat.=44.624733, lon.=33.745686, Alt.=176.732544m. Speed=19.620001m/h.</desc>
<speed>5.450000</speed>
</trkpt>
<trkpt lat="44.626167" lon="33.748173">
<ele>180.6</ele>
<time>2011-10-11T09:02:53Z</time>
<desc>lat.=44.626167, lon.=33.748173, Alt.=176.560669m. Speed=8.280000m/h.</desc>
<speed>2.300000</speed>
</trkpt>
<trkpt lat="44.628075" lon="33.752239">
<ele>182.0</ele>
<time>2011-10-11T09:04:13Z</time>
<desc>lat.=44.628075, lon.=33.752239, Alt.=183.451294m. Speed=26.208000m/h.</desc>
<speed>7.280000</speed>
</trkpt>
<trkpt lat="44.630337" lon="33.755527">
<ele>175.9</ele>
<time>2011-10-11T09:05:03Z</time>
<desc>lat.=44.630337, lon.=33.755527, Alt.=184.459106m. Speed=27.719999m/h.</desc>
<speed>7.700000</speed>
</trkpt>
<trkpt lat="44.631302" lon="33.758087">
<ele>170.8</ele>
<time>2011-10-11T09:05:43Z</time>
<desc>lat.=44.631302, lon.=33.758087, Alt.=180.181763m. Speed=26.028000m/h.</desc>
<speed>7.230000</speed>
</trkpt>
<trkpt lat="44.633385" lon="33.761440">
<ele>163.7</ele>
<time>2011-10-11T09:06:28Z</time>
<desc>lat.=44.633385, lon.=33.761440, Alt.=165.509888m. Speed=30.708000m/h.</desc>
<speed>8.530000</speed>
</trkpt>
<trkpt lat="44.633793" lon="33.763004">
<ele>160.9</ele>
<time>2011-10-11T09:06:48Z</time>
<desc>lat.=44.633793, lon.=33.763004, Alt.=155.611450m. Speed=27.288000m/h.</desc>
<speed>7.580000</speed>
</trkpt>
<trkpt lat="44.633770" lon="33.763454">
<ele>160.3</ele>
<time>2011-10-11T09:06:53Z</time>
<desc>lat.=44.633770, lon.=33.763454, Alt.=155.748169m. Speed=21.672001m/h.</desc>
<speed>6.020000</speed>
</trkpt>
<trkpt lat="44.633331" lon="33.764530">
<ele>157.8</ele>
<time>2011-10-11T09:07:28Z</time>
<desc>lat.=44.633331, lon.=33.764530, Alt.=161.759888m. Speed=18.000000m/h.</desc>
<speed>5.000000</speed>
</trkpt>
<trkpt lat="44.633377" lon="33.764969">
<ele>156.6</ele>
<time>2011-10-11T09:07:33Z</time>
<desc>lat.=44.633377, lon.=33.764969, Alt.=161.720825m. Speed=25.056000m/h.</desc>
<speed>6.960000</speed>
</trkpt>
<trkpt lat="44.633484" lon="33.765434">
<ele>153.5</ele>
<time>2011-10-11T09:07:38Z</time>
<desc>lat.=44.633484, lon.=33.765434, Alt.=159.431763m. Speed=24.048000m/h.</desc>
<speed>6.680000</speed>
</trkpt>
<trkpt lat="44.634197" lon="33.766663">
<ele>152.0</ele>
<time>2011-10-11T09:07:53Z</time>
<desc>lat.=44.634197, lon.=33.766663, Alt.=154.939575m. Speed=22.752001m/h.</desc>
<speed>6.320000</speed>
</trkpt>
<trkpt lat="44.634460" lon="33.767864">
<ele>149.1</ele>
<time>2011-10-11T09:08:23Z</time>
<desc>lat.=44.634460, lon.=33.767864, Alt.=155.443481m. Speed=12.240000m/h.</desc>
<speed>3.400000</speed>
</trkpt>
<trkpt lat="44.634972" lon="33.768730">
<ele>148.8</ele>
<time>2011-10-11T09:08:43Z</time>
<desc>lat.=44.634972, lon.=33.768730, Alt.=159.009888m. Speed=21.743999m/h.</desc>
<speed>6.040000</speed>
</trkpt>
<trkpt lat="44.635075" lon="33.769184">
<ele>148.2</ele>
<time>2011-10-11T09:08:48Z</time>
<desc>lat.=44.635075, lon.=33.769184, Alt.=159.677856m. Speed=31.284000m/h.</desc>
<speed>8.690000</speed>
</trkpt>
<trkpt lat="44.635208" lon="33.770382">
<ele>146.4</ele>
<time>2011-10-11T09:08:58Z</time>
<desc>lat.=44.635208, lon.=33.770382, Alt.=161.080200m. Speed=33.299999m/h.</desc>
<speed>9.250000</speed>
</trkpt>
<trkpt lat="44.635113" lon="33.773350">
<ele>142.0</ele>
<time>2011-10-11T09:09:43Z</time>
<desc>lat.=44.635113, lon.=33.773350, Alt.=152.314575m. Speed=6.984000m/h.</desc>
<speed>1.940000</speed>
</trkpt>
<trkpt lat="44.635456" lon="33.774818">
<ele>137.8</ele>
<time>2011-10-11T09:09:58Z</time>
<desc>lat.=44.635456, lon.=33.774818, Alt.=143.201294m. Speed=40.608002m/h.</desc>
<speed>11.280000</speed>
</trkpt>
<trkpt lat="44.636456" lon="33.776508">
<ele>134.4</ele>
<time>2011-10-11T09:10:13Z</time>
<desc>lat.=44.636456, lon.=33.776508, Alt.=144.966919m. Speed=42.804001m/h.</desc>
<speed>11.890000</speed>
</trkpt>
<trkpt lat="44.638851" lon="33.779186">
<ele>130.1</ele>
<time>2011-10-11T09:10:43Z</time>
<desc>lat.=44.638851, lon.=33.779186, Alt.=145.705200m. Speed=42.695999m/h.</desc>
<speed>11.860000</speed>
</trkpt>
<trkpt lat="44.640423" lon="33.780231">
<ele>122.6</ele>
<time>2011-10-11T09:10:58Z</time>
<desc>lat.=44.640423, lon.=33.780231, Alt.=141.990356m. Speed=40.139999m/h.</desc>
<speed>11.150000</speed>
</trkpt>
<trkpt lat="44.643490" lon="33.780785">
<ele>115.4</ele>
<time>2011-10-11T09:11:23Z</time>
<desc>lat.=44.643490, lon.=33.780785, Alt.=123.299866m. Speed=58.787998m/h.</desc>
<speed>16.329999</speed>
</trkpt>
<trkpt lat="44.645355" lon="33.781590">
<ele>111.7</ele>
<time>2011-10-11T09:11:38Z</time>
<desc>lat.=44.645355, lon.=33.781590, Alt.=114.002991m. Speed=41.112000m/h.</desc>
<speed>11.420000</speed>
</trkpt>
<trkpt lat="44.648411" lon="33.781307">
<ele>108.3</ele>
<time>2011-10-11T09:12:23Z</time>
<desc>lat.=44.648411, lon.=33.781307, Alt.=107.889709m. Speed=11.448000m/h.</desc>
<speed>3.180000</speed>
</trkpt>
<trkpt lat="44.648632" lon="33.782928">
<ele>112.2</ele>
<time>2011-10-11T09:12:43Z</time>
<desc>lat.=44.648632, lon.=33.782928, Alt.=120.272522m. Speed=27.719999m/h.</desc>
<speed>7.700000</speed>
</trkpt>
<trkpt lat="44.648598" lon="33.784359">
<ele>116.7</ele>
<time>2011-10-11T09:13:03Z</time>
<desc>lat.=44.648598, lon.=33.784359, Alt.=127.323303m. Speed=14.400000m/h.</desc>
<speed>4.000000</speed>
</trkpt>
<trkpt lat="44.648880" lon="33.784569">
<ele>118.3</ele>
<time>2011-10-11T09:13:13Z</time>
<desc>lat.=44.648880, lon.=33.784569, Alt.=127.305725m. Speed=18.684000m/h.</desc>
<speed>5.190000</speed>
</trkpt>
<trkpt lat="44.655922" lon="33.781731">
<ele>99.4</ele>
<time>2011-10-11T09:14:18Z</time>
<desc>lat.=44.655922, lon.=33.781731, Alt.=138.170044m. Speed=55.980000m/h.</desc>
<speed>15.550000</speed>
</trkpt>
<trkpt lat="44.658676" lon="33.780224">
<ele>98.1</ele>
<time>2011-10-11T09:14:43Z</time>
<desc>lat.=44.658676, lon.=33.780224, Alt.=129.283325m. Speed=43.344002m/h.</desc>
<speed>12.040000</speed>
</trkpt>
<trkpt lat="44.659252" lon="33.780167">
<ele>90.2</ele>
<time>2011-10-11T09:14:48Z</time>
<desc>lat.=44.659252, lon.=33.780167, Alt.=127.844788m. Speed=48.924000m/h.</desc>
<speed>13.590000</speed>
</trkpt>
<trkpt lat="44.661182" lon="33.780663">
<ele>89.6</ele>
<time>2011-10-11T09:15:03Z</time>
<desc>lat.=44.661182, lon.=33.780663, Alt.=105.456116m. Speed=52.380001m/h.</desc>
<speed>14.550000</speed>
</trkpt>
<trkpt lat="44.661800" lon="33.780933">
<ele>89.4</ele>
<time>2011-10-11T09:15:08Z</time>
<desc>lat.=44.661800, lon.=33.780933, Alt.=101.631897m. Speed=50.939999m/h.</desc>
<speed>14.150000</speed>
</trkpt>
<trkpt lat="44.662292" lon="33.781590">
<ele>89.6</ele>
<time>2011-10-11T09:15:13Z</time>
<desc>lat.=44.662292, lon.=33.781590, Alt.=95.932678m. Speed=50.723999m/h.</desc>
<speed>14.090000</speed>
</trkpt>
<trkpt lat="44.662704" lon="33.783085">
<ele>101.4</ele>
<time>2011-10-11T09:15:23Z</time>
<desc>lat.=44.662704, lon.=33.783085, Alt.=97.569397m. Speed=38.880001m/h.</desc>
<speed>10.800000</speed>
</trkpt>
<trkpt lat="44.662342" lon="33.786037">
<ele>103.8</ele>
<time>2011-10-11T09:15:43Z</time>
<desc>lat.=44.662342, lon.=33.786037, Alt.=99.780334m. Speed=49.500000m/h.</desc>
<speed>13.750000</speed>
</trkpt>
<trkpt lat="44.662331" lon="33.787834">
<ele>102.6</ele>
<time>2011-10-11T09:15:53Z</time>
<desc>lat.=44.662331, lon.=33.787834, Alt.=99.467834m. Speed=53.352001m/h.</desc>
<speed>14.820000</speed>
</trkpt>
<trkpt lat="44.661274" lon="33.794212">
<ele>110.1</ele>
<time>2011-10-11T09:16:28Z</time>
<desc>lat.=44.661274, lon.=33.794212, Alt.=104.731506m. Speed=43.020000m/h.</desc>
<speed>11.950000</speed>
</trkpt>
<trkpt lat="44.661209" lon="33.796368">
<ele>111.9</ele>
<time>2011-10-11T09:16:43Z</time>
<desc>lat.=44.661209, lon.=33.796368, Alt.=108.313538m. Speed=42.264000m/h.</desc>
<speed>11.740000</speed>
</trkpt>
<trkpt lat="44.660027" lon="33.799393">
<ele>113.3</ele>
<time>2011-10-11T09:17:03Z</time>
<desc>lat.=44.660027, lon.=33.799393, Alt.=114.188538m. Speed=57.456001m/h.</desc>
<speed>15.960000</speed>
</trkpt>
<trkpt lat="44.658779" lon="33.801594">
<ele>112.1</ele>
<time>2011-10-11T09:17:18Z</time>
<desc>lat.=44.658779, lon.=33.801594, Alt.=107.163147m. Speed=48.995998m/h.</desc>
<speed>13.610000</speed>
</trkpt>
<trkpt lat="44.657166" lon="33.802818">
<ele>110.3</ele>
<time>2011-10-11T09:17:33Z</time>
<desc>lat.=44.657166, lon.=33.802818, Alt.=101.028381m. Speed=46.619999m/h.</desc>
<speed>12.950000</speed>
</trkpt>
<trkpt lat="44.656269" lon="33.805161">
<ele>109.9</ele>
<time>2011-10-11T09:17:48Z</time>
<desc>lat.=44.656269, lon.=33.805161, Alt.=102.743225m. Speed=53.136002m/h.</desc>
<speed>14.760000</speed>
</trkpt>
<trkpt lat="44.653782" lon="33.809471">
<ele>111.4</ele>
<time>2011-10-11T09:18:18Z</time>
<desc>lat.=44.653782, lon.=33.809471, Alt.=107.506897m. Speed=51.012001m/h.</desc>
<speed>14.170000</speed>
</trkpt>
<trkpt lat="44.652332" lon="33.812992">
<ele>118.5</ele>
<time>2011-10-11T09:18:38Z</time>
<desc>lat.=44.652332, lon.=33.812992, Alt.=120.053772m. Speed=54.467999m/h.</desc>
<speed>15.130000</speed>
</trkpt>
<trkpt lat="44.651878" lon="33.813671">
<ele>120.2</ele>
<time>2011-10-11T09:18:43Z</time>
<desc>lat.=44.651878, lon.=33.813671, Alt.=123.961975m. Speed=48.276001m/h.</desc>
<speed>13.410000</speed>
</trkpt>
<trkpt lat="44.648773" lon="33.816956">
<ele>119.3</ele>
<time>2011-10-11T09:19:13Z</time>
<desc>lat.=44.648773, lon.=33.816956, Alt.=128.072388m. Speed=50.939999m/h.</desc>
<speed>14.150000</speed>
</trkpt>
<trkpt lat="44.647953" lon="33.818150">
<ele>118.2</ele>
<time>2011-10-11T09:19:23Z</time>
<desc>lat.=44.647953, lon.=33.818150, Alt.=129.142700m. Speed=43.667999m/h.</desc>
<speed>12.130000</speed>
</trkpt>
<trkpt lat="44.647491" lon="33.820347">
<ele>121.7</ele>
<time>2011-10-11T09:19:38Z</time>
<desc>lat.=44.647491, lon.=33.820347, Alt.=128.232544m. Speed=55.835999m/h.</desc>
<speed>15.510000</speed>
</trkpt>
<trkpt lat="44.647129" lon="33.821152">
<ele>123.3</ele>
<time>2011-10-11T09:19:43Z</time>
<desc>lat.=44.647129, lon.=33.821152, Alt.=127.961975m. Speed=53.352001m/h.</desc>
<speed>14.820000</speed>
</trkpt>
<trkpt lat="44.644745" lon="33.824112">
<ele>128.0</ele>
<time>2011-10-11T09:20:08Z</time>
<desc>lat.=44.644745, lon.=33.824112, Alt.=130.142700m. Speed=55.512001m/h.</desc>
<speed>15.420000</speed>
</trkpt>
<trkpt lat="44.644299" lon="33.824940">
<ele>127.1</ele>
<time>2011-10-11T09:20:13Z</time>
<desc>lat.=44.644299, lon.=33.824940, Alt.=128.841919m. Speed=59.580002m/h.</desc>
<speed>16.550001</speed>
</trkpt>
<trkpt lat="44.643944" lon="33.825802">
<ele>124.7</ele>
<time>2011-10-11T09:20:18Z</time>
<desc>lat.=44.643944, lon.=33.825802, Alt.=128.076294m. Speed=57.456001m/h.</desc>
<speed>15.960000</speed>
</trkpt>
<trkpt lat="44.643543" lon="33.827751">
<ele>128.9</ele>
<time>2011-10-11T09:20:28Z</time>
<desc>lat.=44.643543, lon.=33.827751, Alt.=123.930725m. Speed=53.784000m/h.</desc>
<speed>14.940000</speed>
</trkpt>
<trkpt lat="44.642021" lon="33.831005">
<ele>123.5</ele>
<time>2011-10-11T09:20:48Z</time>
<desc>lat.=44.642021, lon.=33.831005, Alt.=122.348694m. Speed=55.764000m/h.</desc>
<speed>15.490000</speed>
</trkpt>
<trkpt lat="44.641945" lon="33.831959">
<ele>125.1</ele>
<time>2011-10-11T09:20:53Z</time>
<desc>lat.=44.641945, lon.=33.831959, Alt.=122.354553m. Speed=51.264000m/h.</desc>
<speed>14.240000</speed>
</trkpt>
<trkpt lat="44.641109" lon="33.834396">
<ele>125.1</ele>
<time>2011-10-11T09:21:08Z</time>
<desc>lat.=44.641109, lon.=33.834396, Alt.=119.448303m. Speed=52.560001m/h.</desc>
<speed>14.600000</speed>
</trkpt>
<trkpt lat="44.640553" lon="33.837971">
<ele>132.1</ele>
<time>2011-10-11T09:21:28Z</time>
<desc>lat.=44.640553, lon.=33.837971, Alt.=114.077209m. Speed=46.872002m/h.</desc>
<speed>13.020000</speed>
</trkpt>
<trkpt lat="44.639618" lon="33.840336">
<ele>133.0</ele>
<time>2011-10-11T09:21:43Z</time>
<desc>lat.=44.639618, lon.=33.840336, Alt.=114.598694m. Speed=55.619999m/h.</desc>
<speed>15.450000</speed>
</trkpt>
<trkpt lat="44.639450" lon="33.841183">
<ele>132.9</ele>
<time>2011-10-11T09:21:48Z</time>
<desc>lat.=44.639450, lon.=33.841183, Alt.=115.254944m. Speed=43.992001m/h.</desc>
<speed>12.220000</speed>
</trkpt>
<trkpt lat="44.639648" lon="33.842838">
<ele>132.6</ele>
<time>2011-10-11T09:21:58Z</time>
<desc>lat.=44.639648, lon.=33.842838, Alt.=117.430725m. Speed=51.948002m/h.</desc>
<speed>14.430001</speed>
</trkpt>
<trkpt lat="44.640228" lon="33.844482">
<ele>135.2</ele>
<time>2011-10-11T09:22:08Z</time>
<desc>lat.=44.640228, lon.=33.844482, Alt.=119.504944m. Speed=47.807999m/h.</desc>
<speed>13.280000</speed>
</trkpt>
<trkpt lat="44.640106" lon="33.846748">
<ele>136.4</ele>
<time>2011-10-11T09:22:23Z</time>
<desc>lat.=44.640106, lon.=33.846748, Alt.=121.313538m. Speed=50.363998m/h.</desc>
<speed>13.990000</speed>
</trkpt>
<trkpt lat="44.639912" lon="33.847530">
<ele>137.3</ele>
<time>2011-10-11T09:22:28Z</time>
<desc>lat.=44.639912, lon.=33.847530, Alt.=121.672913m. Speed=44.495998m/h.</desc>
<speed>12.360000</speed>
</trkpt>
<trkpt lat="44.639130" lon="33.848434">
<ele>140.4</ele>
<time>2011-10-11T09:22:38Z</time>
<desc>lat.=44.639130, lon.=33.848434, Alt.=125.729553m. Speed=46.152000m/h.</desc>
<speed>12.820000</speed>
</trkpt>
<trkpt lat="44.638317" lon="33.849819">
<ele>139.1</ele>
<time>2011-10-11T09:22:48Z</time>
<desc>lat.=44.638317, lon.=33.849819, Alt.=130.775513m. Speed=54.540001m/h.</desc>
<speed>15.150000</speed>
</trkpt>
<trkpt lat="44.637115" lon="33.852818">
<ele>140.0</ele>
<time>2011-10-11T09:23:08Z</time>
<desc>lat.=44.637115, lon.=33.852818, Alt.=136.974731m. Speed=57.528000m/h.</desc>
<speed>15.980000</speed>
</trkpt>
<trkpt lat="44.635731" lon="33.855053">
<ele>138.5</ele>
<time>2011-10-11T09:23:23Z</time>
<desc>lat.=44.635731, lon.=33.855053, Alt.=138.634888m. Speed=53.568001m/h.</desc>
<speed>14.880000</speed>
</trkpt>
<trkpt lat="44.635143" lon="33.856758">
<ele>138.4</ele>
<time>2011-10-11T09:23:33Z</time>
<desc>lat.=44.635143, lon.=33.856758, Alt.=139.771606m. Speed=55.152000m/h.</desc>
<speed>15.320000</speed>
</trkpt>
<trkpt lat="44.632874" lon="33.861233">
<ele>141.7</ele>
<time>2011-10-11T09:24:13Z</time>
<desc>lat.=44.632874, lon.=33.861233, Alt.=144.818481m. Speed=0.936000m/h.</desc>
<speed>0.260000</speed>
</trkpt>
<trkpt lat="44.632778" lon="33.860950">
<ele>140.7</ele>
<time>2011-10-11T09:26:13Z</time>
<desc>lat.=44.632778, lon.=33.860950, Alt.=151.904419m. Speed=0.180000m/h.</desc>
<speed>0.050000</speed>
</trkpt>
<trkpt lat="44.632896" lon="33.861076">
<ele>141.5</ele>
<time>2011-10-11T09:32:48Z</time>
<desc>lat.=44.632896, lon.=33.861076, Alt.=157.416138m. Speed=2.916000m/h.</desc>
<speed>0.810000</speed>
</trkpt>
<trkpt lat="44.632061" lon="33.862362">
<ele>140.4</ele>
<time>2011-10-11T09:39:18Z</time>
<desc>lat.=44.632061, lon.=33.862362, Alt.=141.845825m. Speed=41.868000m/h.</desc>
<speed>11.630000</speed>
</trkpt>
<trkpt lat="44.629745" lon="33.864723">
<ele>149.9</ele>
<time>2011-10-11T09:39:48Z</time>
<desc>lat.=44.629745, lon.=33.864723, Alt.=142.873169m. Speed=14.616000m/h.</desc>
<speed>4.060000</speed>
</trkpt>
<trkpt lat="44.628887" lon="33.867123">
<ele>152.1</ele>
<time>2011-10-11T09:40:13Z</time>
<desc>lat.=44.628887, lon.=33.867123, Alt.=149.111450m. Speed=39.779999m/h.</desc>
<speed>11.050000</speed>
</trkpt>
<trkpt lat="44.628132" lon="33.868198">
<ele>151.5</ele>
<time>2011-10-11T09:40:23Z</time>
<desc>lat.=44.628132, lon.=33.868198, Alt.=151.920044m. Speed=42.948002m/h.</desc>
<speed>11.930001</speed>
</trkpt>
<trkpt lat="44.625088" lon="33.870876">
<ele>153.4</ele>
<time>2011-10-11T09:40:53Z</time>
<desc>lat.=44.625088, lon.=33.870876, Alt.=159.830200m. Speed=49.104000m/h.</desc>
<speed>13.640000</speed>
</trkpt>
<trkpt lat="44.624054" lon="33.871513">
<ele>151.3</ele>
<time>2011-10-11T09:41:03Z</time>
<desc>lat.=44.624054, lon.=33.871513, Alt.=161.650513m. Speed=47.952000m/h.</desc>
<speed>13.320000</speed>
</trkpt>
<trkpt lat="44.623619" lon="33.872101">
<ele>153.0</ele>
<time>2011-10-11T09:41:08Z</time>
<desc>lat.=44.623619, lon.=33.872101, Alt.=162.369263m. Speed=49.284000m/h.</desc>
<speed>13.690000</speed>
</trkpt>
<trkpt lat="44.622566" lon="33.875301">
<ele>161.5</ele>
<time>2011-10-11T09:41:28Z</time>
<desc>lat.=44.622566, lon.=33.875301, Alt.=167.498169m. Speed=45.287998m/h.</desc>
<speed>12.579999</speed>
</trkpt>
<trkpt lat="44.621517" lon="33.877270">
<ele>166.9</ele>
<time>2011-10-11T09:41:43Z</time>
<desc>lat.=44.621517, lon.=33.877270, Alt.=178.877075m. Speed=51.155998m/h.</desc>
<speed>14.210000</speed>
</trkpt>
<trkpt lat="44.620934" lon="33.877811">
<ele>170.3</ele>
<time>2011-10-11T09:41:48Z</time>
<desc>lat.=44.620934, lon.=33.877811, Alt.=181.822388m. Speed=52.056000m/h.</desc>
<speed>14.460000</speed>
</trkpt>
<trkpt lat="44.620220" lon="33.877979">
<ele>170.9</ele>
<time>2011-10-11T09:41:53Z</time>
<desc>lat.=44.620220, lon.=33.877979, Alt.=183.076294m. Speed=53.136002m/h.</desc>
<speed>14.760000</speed>
</trkpt>
<trkpt lat="44.618965" lon="33.877506">
<ele>168.6</ele>
<time>2011-10-11T09:42:03Z</time>
<desc>lat.=44.618965, lon.=33.877506, Alt.=177.025513m. Speed=50.868000m/h.</desc>
<speed>14.130000</speed>
</trkpt>
<trkpt lat="44.617622" lon="33.877499">
<ele>168.0</ele>
<time>2011-10-11T09:42:13Z</time>
<desc>lat.=44.617622, lon.=33.877499, Alt.=174.498169m. Speed=53.424000m/h.</desc>
<speed>14.840000</speed>
</trkpt>
<trkpt lat="44.616974" lon="33.877777">
<ele>167.8</ele>
<time>2011-10-11T09:42:18Z</time>
<desc>lat.=44.616974, lon.=33.877777, Alt.=174.150513m. Speed=51.875999m/h.</desc>
<speed>14.410000</speed>
</trkpt>
<trkpt lat="44.616478" lon="33.878281">
<ele>169.3</ele>
<time>2011-10-11T09:42:23Z</time>
<desc>lat.=44.616478, lon.=33.878281, Alt.=174.107544m. Speed=46.944000m/h.</desc>
<speed>13.040000</speed>
</trkpt>
<trkpt lat="44.615444" lon="33.880852">
<ele>173.8</ele>
<time>2011-10-11T09:42:43Z</time>
<desc>lat.=44.615444, lon.=33.880852, Alt.=169.970825m. Speed=41.796001m/h.</desc>
<speed>11.610000</speed>
</trkpt>
<trkpt lat="44.613232" lon="33.884926">
<ele>185.6</ele>
<time>2011-10-11T09:43:13Z</time>
<desc>lat.=44.613232, lon.=33.884926, Alt.=170.029419m. Speed=47.916000m/h.</desc>
<speed>13.310000</speed>
</trkpt>
<trkpt lat="44.612732" lon="33.885391">
<ele>189.0</ele>
<time>2011-10-11T09:43:18Z</time>
<desc>lat.=44.612732, lon.=33.885391, Alt.=176.088013m. Speed=46.296001m/h.</desc>
<speed>12.860000</speed>
</trkpt>
<trkpt lat="44.610962" lon="33.886379">
<ele>195.6</ele>
<time>2011-10-11T09:43:33Z</time>
<desc>lat.=44.610962, lon.=33.886379, Alt.=186.634888m. Speed=52.883999m/h.</desc>
<speed>14.690000</speed>
</trkpt>
<trkpt lat="44.609921" lon="33.887524">
<ele>195.9</ele>
<time>2011-10-11T09:43:43Z</time>
<desc>lat.=44.609921, lon.=33.887524, Alt.=192.423950m. Speed=49.608002m/h.</desc>
<speed>13.780000</speed>
</trkpt>
<trkpt lat="44.608471" lon="33.891045">
<ele>193.6</ele>
<time>2011-10-11T09:44:08Z</time>
<desc>lat.=44.608471, lon.=33.891045, Alt.=193.572388m. Speed=50.292000m/h.</desc>
<speed>13.970000</speed>
</trkpt>
<trkpt lat="44.608013" lon="33.892883">
<ele>191.6</ele>
<time>2011-10-11T09:44:18Z</time>
<desc>lat.=44.608013, lon.=33.892883, Alt.=188.177856m. Speed=58.248001m/h.</desc>
<speed>16.180000</speed>
</trkpt>
<trkpt lat="44.607361" lon="33.894661">
<ele>187.5</ele>
<time>2011-10-11T09:44:28Z</time>
<desc>lat.=44.607361, lon.=33.894661, Alt.=186.857544m. Speed=58.212002m/h.</desc>
<speed>16.170001</speed>
</trkpt>
<trkpt lat="44.606853" lon="33.895405">
<ele>187.2</ele>
<time>2011-10-11T09:44:33Z</time>
<desc>lat.=44.606853, lon.=33.895405, Alt.=186.787231m. Speed=57.203999m/h.</desc>
<speed>15.890000</speed>
</trkpt>
<trkpt lat="44.606194" lon="33.895885">
<ele>183.6</ele>
<time>2011-10-11T09:44:38Z</time>
<desc>lat.=44.606194, lon.=33.895885, Alt.=183.724731m. Speed=58.355999m/h.</desc>
<speed>16.210000</speed>
</trkpt>
<trkpt lat="44.604374" lon="33.898575">
<ele>184.3</ele>
<time>2011-10-11T09:44:58Z</time>
<desc>lat.=44.604374, lon.=33.898575, Alt.=183.209106m. Speed=43.883999m/h.</desc>
<speed>12.190000</speed>
</trkpt>
<trkpt lat="44.603931" lon="33.900112">
<ele>185.1</ele>
<time>2011-10-11T09:45:08Z</time>
<desc>lat.=44.603931, lon.=33.900112, Alt.=181.627075m. Speed=47.051998m/h.</desc>
<speed>13.069999</speed>
</trkpt>
<trkpt lat="44.603893" lon="33.900948">
<ele>185.1</ele>
<time>2011-10-11T09:45:13Z</time>
<desc>lat.=44.603893, lon.=33.900948, Alt.=181.060669m. Speed=47.160000m/h.</desc>
<speed>13.100000</speed>
</trkpt>
<trkpt lat="44.601162" lon="33.904625">
<ele>185.8</ele>
<time>2011-10-11T09:45:43Z</time>
<desc>lat.=44.601162, lon.=33.904625, Alt.=182.564575m. Speed=58.967999m/h.</desc>
<speed>16.380000</speed>
</trkpt>
<trkpt lat="44.599731" lon="33.908047">
<ele>195.9</ele>
<time>2011-10-11T09:46:03Z</time>
<desc>lat.=44.599731, lon.=33.908047, Alt.=183.752075m. Speed=52.271999m/h.</desc>
<speed>14.520000</speed>
</trkpt>
<trkpt lat="44.598927" lon="33.909462">
<ele>198.4</ele>
<time>2011-10-11T09:46:13Z</time>
<desc>lat.=44.598927, lon.=33.909462, Alt.=190.302856m. Speed=51.695999m/h.</desc>
<speed>14.360000</speed>
</trkpt>
<trkpt lat="44.596539" lon="33.911995">
<ele>198.0</ele>
<time>2011-10-11T09:46:33Z</time>
<desc>lat.=44.596539, lon.=33.911995, Alt.=199.701294m. Speed=56.627998m/h.</desc>
<speed>15.730000</speed>
</trkpt>
<trkpt lat="44.595242" lon="33.912800">
<ele>192.9</ele>
<time>2011-10-11T09:46:43Z</time>
<desc>lat.=44.595242, lon.=33.912800, Alt.=198.205200m. Speed=59.507999m/h.</desc>
<speed>16.530000</speed>
</trkpt>
<trkpt lat="44.594215" lon="33.913811">
<ele>198.5</ele>
<time>2011-10-11T09:46:53Z</time>
<desc>lat.=44.594215, lon.=33.913811, Alt.=200.357544m. Speed=44.604000m/h.</desc>
<speed>12.390000</speed>
</trkpt>
<trkpt lat="44.592876" lon="33.914497">
<ele>198.1</ele>
<time>2011-10-11T09:47:08Z</time>
<desc>lat.=44.592876, lon.=33.914497, Alt.=199.427856m. Speed=35.891998m/h.</desc>
<speed>9.970000</speed>
</trkpt>
<trkpt lat="44.589756" lon="33.919441">
<ele>198.8</ele>
<time>2011-10-11T09:47:48Z</time>
<desc>lat.=44.589756, lon.=33.919441, Alt.=198.423950m. Speed=50.183998m/h.</desc>
<speed>13.939999</speed>
</trkpt>
<trkpt lat="44.586269" lon="33.924026">
<ele>203.9</ele>
<time>2011-10-11T09:48:23Z</time>
<desc>lat.=44.586269, lon.=33.924026, Alt.=190.791138m. Speed=51.299999m/h.</desc>
<speed>14.250000</speed>
</trkpt>
<trkpt lat="44.583538" lon="33.929489">
<ele>211.5</ele>
<time>2011-10-11T09:48:58Z</time>
<desc>lat.=44.583538, lon.=33.929489, Alt.=204.236450m. Speed=54.324001m/h.</desc>
<speed>15.090000</speed>
</trkpt>
<trkpt lat="44.582020" lon="33.936554">
<ele>212.2</ele>
<time>2011-10-11T09:49:38Z</time>
<desc>lat.=44.582020, lon.=33.936554, Alt.=210.240356m. Speed=41.040001m/h.</desc>
<speed>11.400000</speed>
</trkpt>
<trkpt lat="44.581554" lon="33.936905">
<ele>211.5</ele>
<time>2011-10-11T09:49:43Z</time>
<desc>lat.=44.581554, lon.=33.936905, Alt.=210.740356m. Speed=43.703999m/h.</desc>
<speed>12.140000</speed>
</trkpt>
<trkpt lat="44.579651" lon="33.937469">
<ele>218.0</ele>
<time>2011-10-11T09:49:58Z</time>
<desc>lat.=44.579651, lon.=33.937469, Alt.=211.318481m. Speed=50.183998m/h.</desc>
<speed>13.939999</speed>
</trkpt>
<trkpt lat="44.577732" lon="33.938427">
<ele>220.2</ele>
<time>2011-10-11T09:50:13Z</time>
<desc>lat.=44.577732, lon.=33.938427, Alt.=217.611450m. Speed=55.007999m/h.</desc>
<speed>15.280000</speed>
</trkpt>
<trkpt lat="44.575863" lon="33.939960">
<ele>222.2</ele>
<time>2011-10-11T09:50:28Z</time>
<desc>lat.=44.575863, lon.=33.939960, Alt.=220.556763m. Speed=59.616001m/h.</desc>
<speed>16.560000</speed>
</trkpt>
<trkpt lat="44.574184" lon="33.942131">
<ele>225.6</ele>
<time>2011-10-11T09:50:43Z</time>
<desc>lat.=44.574184, lon.=33.942131, Alt.=222.588013m. Speed=62.279999m/h.</desc>
<speed>17.300000</speed>
</trkpt>
<trkpt lat="44.572895" lon="33.943100">
<ele>226.1</ele>
<time>2011-10-11T09:50:53Z</time>
<desc>lat.=44.572895, lon.=33.943100, Alt.=225.103638m. Speed=54.863998m/h.</desc>
<speed>15.240000</speed>
</trkpt>
<trkpt lat="44.572323" lon="33.943489">
<ele>225.8</ele>
<time>2011-10-11T09:50:58Z</time>
<desc>lat.=44.572323, lon.=33.943489, Alt.=226.423950m. Speed=49.500000m/h.</desc>
<speed>13.750000</speed>
</trkpt>
<trkpt lat="44.569069" lon="33.944389">
<ele>235.9</ele>
<time>2011-10-11T09:51:23Z</time>
<desc>lat.=44.569069, lon.=33.944389, Alt.=228.572388m. Speed=51.119999m/h.</desc>
<speed>14.200000</speed>
</trkpt>
<trkpt lat="44.567200" lon="33.945358">
<ele>243.2</ele>
<time>2011-10-11T09:51:38Z</time>
<desc>lat.=44.567200, lon.=33.945358, Alt.=233.345825m. Speed=54.216000m/h.</desc>
<speed>15.060000</speed>
</trkpt>
<trkpt lat="44.563881" lon="33.948059">
<ele>247.4</ele>
<time>2011-10-11T09:52:08Z</time>
<desc>lat.=44.563881, lon.=33.948059, Alt.=239.076294m. Speed=47.771999m/h.</desc>
<speed>13.270000</speed>
</trkpt>
<trkpt lat="44.562111" lon="33.948833">
<ele>252.5</ele>
<time>2011-10-11T09:52:23Z</time>
<desc>lat.=44.562111, lon.=33.948833, Alt.=240.845825m. Speed=47.411999m/h.</desc>
<speed>13.170000</speed>
</trkpt>
<trkpt lat="44.560116" lon="33.950069">
<ele>258.1</ele>
<time>2011-10-11T09:52:43Z</time>
<desc>lat.=44.560116, lon.=33.950069, Alt.=251.646606m. Speed=42.804001m/h.</desc>
<speed>11.890000</speed>
</trkpt>
<trkpt lat="44.559044" lon="33.951378">
<ele>261.1</ele>
<time>2011-10-11T09:52:58Z</time>
<desc>lat.=44.559044, lon.=33.951378, Alt.=254.447388m. Speed=34.632000m/h.</desc>
<speed>9.620000</speed>
</trkpt>
<trkpt lat="44.557854" lon="33.952435">
<ele>259.5</ele>
<time>2011-10-11T09:53:13Z</time>
<desc>lat.=44.557854, lon.=33.952435, Alt.=255.752075m. Speed=31.968000m/h.</desc>
<speed>8.880000</speed>
</trkpt>
<trkpt lat="44.554760" lon="33.953178">
<ele>265.3</ele>
<time>2011-10-11T09:53:43Z</time>
<desc>lat.=44.554760, lon.=33.953178, Alt.=256.285400m. Speed=41.004002m/h.</desc>
<speed>11.390000</speed>
</trkpt>
<trkpt lat="44.552887" lon="33.954723">
<ele>266.7</ele>
<time>2011-10-11T09:54:03Z</time>
<desc>lat.=44.552887, lon.=33.954723, Alt.=257.386963m. Speed=39.924000m/h.</desc>
<speed>11.090000</speed>
</trkpt>
<trkpt lat="44.552284" lon="33.955730">
<ele>266.0</ele>
<time>2011-10-11T09:54:13Z</time>
<desc>lat.=44.552284, lon.=33.955730, Alt.=258.621338m. Speed=35.028000m/h.</desc>
<speed>9.730000</speed>
</trkpt>
<trkpt lat="44.551937" lon="33.956013">
<ele>266.6</ele>
<time>2011-10-11T09:54:18Z</time>
<desc>lat.=44.551937, lon.=33.956013, Alt.=261.199463m. Speed=33.119999m/h.</desc>
<speed>9.200000</speed>
</trkpt>
<trkpt lat="44.548424" lon="33.956993">
<ele>286.5</ele>
<time>2011-10-11T09:55:23Z</time>
<desc>lat.=44.548424, lon.=33.956993, Alt.=276.551025m. Speed=25.812000m/h.</desc>
<speed>7.170000</speed>
</trkpt>
<trkpt lat="44.548016" lon="33.957523">
<ele>294.4</ele>
<time>2011-10-11T09:55:33Z</time>
<desc>lat.=44.548016, lon.=33.957523, Alt.=278.613525m. Speed=18.756001m/h.</desc>
<speed>5.210000</speed>
</trkpt>
<trkpt lat="44.547981" lon="33.958149">
<ele>289.0</ele>
<time>2011-10-11T09:55:48Z</time>
<desc>lat.=44.547981, lon.=33.958149, Alt.=283.121338m. Speed=21.455999m/h.</desc>
<speed>5.960000</speed>
</trkpt>
<trkpt lat="44.547451" lon="33.958652">
<ele>295.3</ele>
<time>2011-10-11T09:55:58Z</time>
<desc>lat.=44.547451, lon.=33.958652, Alt.=285.871338m. Speed=23.544001m/h.</desc>
<speed>6.540000</speed>
</trkpt>
<trkpt lat="44.546894" lon="33.958832">
<ele>304.8</ele>
<time>2011-10-11T09:56:08Z</time>
<desc>lat.=44.546894, lon.=33.958832, Alt.=288.754150m. Speed=20.483999m/h.</desc>
<speed>5.690000</speed>
</trkpt>
<trkpt lat="44.546276" lon="33.959961">
<ele>298.9</ele>
<time>2011-10-11T09:56:28Z</time>
<desc>lat.=44.546276, lon.=33.959961, Alt.=293.074463m. Speed=22.068001m/h.</desc>
<speed>6.130000</speed>
</trkpt>
<trkpt lat="44.545422" lon="33.960705">
<ele>303.8</ele>
<time>2011-10-11T09:56:43Z</time>
<desc>lat.=44.545422, lon.=33.960705, Alt.=295.332275m. Speed=25.812000m/h.</desc>
<speed>7.170000</speed>
</trkpt>
<trkpt lat="44.545166" lon="33.960835">
<ele>298.7</ele>
<time>2011-10-11T09:56:48Z</time>
<desc>lat.=44.545166, lon.=33.960835, Alt.=298.285400m. Speed=21.059999m/h.</desc>
<speed>5.850000</speed>
</trkpt>
<trkpt lat="44.543869" lon="33.960224">
<ele>306.1</ele>
<time>2011-10-11T09:57:08Z</time>
<desc>lat.=44.543869, lon.=33.960224, Alt.=302.793213m. Speed=21.420000m/h.</desc>
<speed>5.950000</speed>
</trkpt>
<trkpt lat="44.543655" lon="33.960396">
<ele>304.6</ele>
<time>2011-10-11T09:57:13Z</time>
<desc>lat.=44.543655, lon.=33.960396, Alt.=304.676025m. Speed=14.688000m/h.</desc>
<speed>4.080000</speed>
</trkpt>
<trkpt lat="44.543327" lon="33.959972">
<ele>313.3</ele>
<time>2011-10-11T09:57:23Z</time>
<desc>lat.=44.543327, lon.=33.959972, Alt.=307.902588m. Speed=17.424000m/h.</desc>
<speed>4.840000</speed>
</trkpt>
<trkpt lat="44.542805" lon="33.960220">
<ele>325.7</ele>
<time>2011-10-11T09:57:33Z</time>
<desc>lat.=44.542805, lon.=33.960220, Alt.=311.574463m. Speed=16.632000m/h.</desc>
<speed>4.620000</speed>
</trkpt>
<trkpt lat="44.542816" lon="33.960560">
<ele>325.2</ele>
<time>2011-10-11T09:57:38Z</time>
<desc>lat.=44.542816, lon.=33.960560, Alt.=316.082275m. Speed=16.020000m/h.</desc>
<speed>4.450000</speed>
</trkpt>
<trkpt lat="44.543072" lon="33.960979">
<ele>320.6</ele>
<time>2011-10-11T09:57:43Z</time>
<desc>lat.=44.543072, lon.=33.960979, Alt.=322.230713m. Speed=28.080000m/h.</desc>
<speed>7.800000</speed>
</trkpt>
<trkpt lat="44.543037" lon="33.961269">
<ele>325.1</ele>
<time>2011-10-11T09:57:48Z</time>
<desc>lat.=44.543037, lon.=33.961269, Alt.=326.410400m. Speed=18.468000m/h.</desc>
<speed>5.130000</speed>
</trkpt>
<trkpt lat="44.541935" lon="33.962624">
<ele>341.9</ele>
<time>2011-10-11T09:58:08Z</time>
<desc>lat.=44.541935, lon.=33.962624, Alt.=339.449463m. Speed=31.860001m/h.</desc>
<speed>8.850000</speed>
</trkpt>
<trkpt lat="44.541550" lon="33.962814">
<ele>344.0</ele>
<time>2011-10-11T09:58:13Z</time>
<desc>lat.=44.541550, lon.=33.962814, Alt.=338.207275m. Speed=26.856001m/h.</desc>
<speed>7.460000</speed>
</trkpt>
<trkpt lat="44.540871" lon="33.963604">
<ele>353.0</ele>
<time>2011-10-11T09:58:23Z</time>
<desc>lat.=44.540871, lon.=33.963604, Alt.=334.371338m. Speed=30.672001m/h.</desc>
<speed>8.520000</speed>
</trkpt>
<trkpt lat="44.540665" lon="33.964203">
<ele>357.5</ele>
<time>2011-10-11T09:58:28Z</time>
<desc>lat.=44.540665, lon.=33.964203, Alt.=333.386963m. Speed=34.236000m/h.</desc>
<speed>9.510000</speed>
</trkpt>
<trkpt lat="44.540028" lon="33.965038">
<ele>349.7</ele>
<time>2011-10-11T09:58:43Z</time>
<desc>lat.=44.540028, lon.=33.965038, Alt.=331.144775m. Speed=12.240000m/h.</desc>
<speed>3.400000</speed>
</trkpt>
<trkpt lat="44.539463" lon="33.965168">
<ele>355.6</ele>
<time>2011-10-11T09:58:53Z</time>
<desc>lat.=44.539463, lon.=33.965168, Alt.=333.535400m. Speed=27.072001m/h.</desc>
<speed>7.520000</speed>
</trkpt>
<trkpt lat="44.539173" lon="33.965553">
<ele>359.4</ele>
<time>2011-10-11T09:58:58Z</time>
<desc>lat.=44.539173, lon.=33.965553, Alt.=333.535400m. Speed=30.492001m/h.</desc>
<speed>8.470000</speed>
</trkpt>
<trkpt lat="44.539299" lon="33.966694">
<ele>356.1</ele>
<time>2011-10-11T09:59:08Z</time>
<desc>lat.=44.539299, lon.=33.966694, Alt.=331.863525m. Speed=24.624001m/h.</desc>
<speed>6.840000</speed>
</trkpt>
<trkpt lat="44.538662" lon="33.967541">
<ele>371.6</ele>
<time>2011-10-11T09:59:23Z</time>
<desc>lat.=44.538662, lon.=33.967541, Alt.=334.691650m. Speed=22.823999m/h.</desc>
<speed>6.340000</speed>
</trkpt>
<trkpt lat="44.538647" lon="33.968651">
<ele>359.9</ele>
<time>2011-10-11T09:59:33Z</time>
<desc>lat.=44.538647, lon.=33.968651, Alt.=340.402588m. Speed=26.351999m/h.</desc>
<speed>7.320000</speed>
</trkpt>
<trkpt lat="44.538364" lon="33.969021">
<ele>367.8</ele>
<time>2011-10-11T09:59:38Z</time>
<desc>lat.=44.538364, lon.=33.969021, Alt.=339.308838m. Speed=29.124001m/h.</desc>
<speed>8.090000</speed>
</trkpt>
<trkpt lat="44.538197" lon="33.969963">
<ele>367.6</ele>
<time>2011-10-11T09:59:48Z</time>
<desc>lat.=44.538197, lon.=33.969963, Alt.=341.136963m. Speed=20.124001m/h.</desc>
<speed>5.590000</speed>
</trkpt>
<trkpt lat="44.536293" lon="33.971107">
<ele>379.1</ele>
<time>2011-10-11T10:00:18Z</time>
<desc>lat.=44.536293, lon.=33.971107, Alt.=354.808838m. Speed=28.007999m/h.</desc>
<speed>7.780000</speed>
</trkpt>
<trkpt lat="44.534882" lon="33.971165">
<ele>389.6</ele>
<time>2011-10-11T10:00:38Z</time>
<desc>lat.=44.534882, lon.=33.971165, Alt.=363.574463m. Speed=14.328000m/h.</desc>
<speed>3.980000</speed>
</trkpt>
<trkpt lat="44.534557" lon="33.971973">
<ele>390.1</ele>
<time>2011-10-11T10:00:48Z</time>
<desc>lat.=44.534557, lon.=33.971973, Alt.=363.160400m. Speed=20.232000m/h.</desc>
<speed>5.620000</speed>
</trkpt>
<trkpt lat="44.533329" lon="33.972527">
<ele>397.3</ele>
<time>2011-10-11T10:01:03Z</time>
<desc>lat.=44.533329, lon.=33.972527, Alt.=371.801025m. Speed=42.695999m/h.</desc>
<speed>11.860000</speed>
</trkpt>
<trkpt lat="44.532257" lon="33.974754">
<ele>401.9</ele>
<time>2011-10-11T10:01:23Z</time>
<desc>lat.=44.532257, lon.=33.974754, Alt.=375.207275m. Speed=30.384001m/h.</desc>
<speed>8.440000</speed>
</trkpt>
<trkpt lat="44.531639" lon="33.975292">
<ele>411.5</ele>
<time>2011-10-11T10:01:33Z</time>
<desc>lat.=44.531639, lon.=33.975292, Alt.=377.465088m. Speed=31.068001m/h.</desc>
<speed>8.630000</speed>
</trkpt>
<trkpt lat="44.531216" lon="33.976177">
<ele>408.8</ele>
<time>2011-10-11T10:01:43Z</time>
<desc>lat.=44.531216, lon.=33.976177, Alt.=379.582275m. Speed=21.348000m/h.</desc>
<speed>5.930000</speed>
</trkpt>
<trkpt lat="44.530918" lon="33.976364">
<ele>412.9</ele>
<time>2011-10-11T10:01:48Z</time>
<desc>lat.=44.530918, lon.=33.976364, Alt.=380.707275m. Speed=26.063999m/h.</desc>
<speed>7.240000</speed>
</trkpt>
<trkpt lat="44.530575" lon="33.977283">
<ele>410.9</ele>
<time>2011-10-11T10:01:58Z</time>
<desc>lat.=44.530575, lon.=33.977283, Alt.=381.191650m. Speed=24.228001m/h.</desc>
<speed>6.730000</speed>
</trkpt>
<trkpt lat="44.527859" lon="33.978935">
<ele>420.8</ele>
<time>2011-10-11T10:02:28Z</time>
<desc>lat.=44.527859, lon.=33.978935, Alt.=385.199463m. Speed=46.152000m/h.</desc>
<speed>12.820000</speed>
</trkpt>
<trkpt lat="44.526711" lon="33.979904">
<ele>423.5</ele>
<time>2011-10-11T10:02:43Z</time>
<desc>lat.=44.526711, lon.=33.979904, Alt.=386.199463m. Speed=28.260000m/h.</desc>
<speed>7.850000</speed>
</trkpt>
<trkpt lat="44.525486" lon="33.979992">
<ele>427.4</ele>
<time>2011-10-11T10:03:03Z</time>
<desc>lat.=44.525486, lon.=33.979992, Alt.=390.027588m. Speed=21.132000m/h.</desc>
<speed>5.870000</speed>
</trkpt>
<trkpt lat="44.524155" lon="33.980728">
<ele>433.8</ele>
<time>2011-10-11T10:03:23Z</time>
<desc>lat.=44.524155, lon.=33.980728, Alt.=391.801025m. Speed=30.132000m/h.</desc>
<speed>8.370000</speed>
</trkpt>
<trkpt lat="44.523495" lon="33.981544">
<ele>438.5</ele>
<time>2011-10-11T10:03:33Z</time>
<desc>lat.=44.523495, lon.=33.981544, Alt.=393.105713m. Speed=35.784000m/h.</desc>
<speed>9.940000</speed>
</trkpt>
<trkpt lat="44.523159" lon="33.982662">
<ele>438.8</ele>
<time>2011-10-11T10:03:43Z</time>
<desc>lat.=44.523159, lon.=33.982662, Alt.=392.277588m. Speed=28.332001m/h.</desc>
<speed>7.870000</speed>
</trkpt>
<trkpt lat="44.522221" lon="33.983543">
<ele>435.0</ele>
<time>2011-10-11T10:04:03Z</time>
<desc>lat.=44.522221, lon.=33.983543, Alt.=397.551025m. Speed=26.028000m/h.</desc>
<speed>7.230000</speed>
</trkpt>
<trkpt lat="44.521461" lon="33.983635">
<ele>437.6</ele>
<time>2011-10-11T10:04:13Z</time>
<desc>lat.=44.521461, lon.=33.983635, Alt.=401.207275m. Speed=27.323999m/h.</desc>
<speed>7.590000</speed>
</trkpt>
<trkpt lat="44.521141" lon="33.983421">
<ele>438.2</ele>
<time>2011-10-11T10:04:18Z</time>
<desc>lat.=44.521141, lon.=33.983421, Alt.=401.621338m. Speed=31.752001m/h.</desc>
<speed>8.820000</speed>
</trkpt>
<trkpt lat="44.519581" lon="33.983879">
<ele>447.3</ele>
<time>2011-10-11T10:04:38Z</time>
<desc>lat.=44.519581, lon.=33.983879, Alt.=404.691650m. Speed=18.792000m/h.</desc>
<speed>5.220000</speed>
</trkpt>
<trkpt lat="44.518459" lon="33.984783">
<ele>439.2</ele>
<time>2011-10-11T10:04:58Z</time>
<desc>lat.=44.518459, lon.=33.984783, Alt.=402.402588m. Speed=21.455999m/h.</desc>
<speed>5.960000</speed>
</trkpt>
<trkpt lat="44.518139" lon="33.985310">
<ele>428.7</ele>
<time>2011-10-11T10:05:08Z</time>
<desc>lat.=44.518139, lon.=33.985310, Alt.=401.746338m. Speed=16.452000m/h.</desc>
<speed>4.570000</speed>
</trkpt>
<trkpt lat="44.517471" lon="33.984383">
<ele>433.6</ele>
<time>2011-10-11T10:05:33Z</time>
<desc>lat.=44.517471, lon.=33.984383, Alt.=412.988525m. Speed=11.052000m/h.</desc>
<speed>3.070000</speed>
</trkpt>
<trkpt lat="44.517105" lon="33.984146">
<ele>433.4</ele>
<time>2011-10-11T10:07:18Z</time>
<desc>lat.=44.517105, lon.=33.984146, Alt.=429.832275m. Speed=0.396000m/h.</desc>
<speed>0.110000</speed>
</trkpt>
<trkpt lat="44.517227" lon="33.984264">
<ele>433.3</ele>
<time>2011-10-11T10:11:13Z</time>
<desc>lat.=44.517227, lon.=33.984264, Alt.=428.285400m. Speed=0.108000m/h.</desc>
<speed>0.030000</speed>
</trkpt>
<trkpt lat="44.517078" lon="33.984337">
<ele>434.0</ele>
<time>2011-10-11T10:12:28Z</time>
<desc>lat.=44.517078, lon.=33.984337, Alt.=417.785400m. Speed=0.288000m/h.</desc>
<speed>0.080000</speed>
</trkpt>
<trkpt lat="44.517231" lon="33.984230">
<ele>433.3</ele>
<time>2011-10-11T10:14:38Z</time>
<desc>lat.=44.517231, lon.=33.984230, Alt.=416.363525m. Speed=0.756000m/h.</desc>
<speed>0.210000</speed>
</trkpt>
<trkpt lat="44.517292" lon="33.984459">
<ele>432.5</ele>
<time>2011-10-11T10:16:38Z</time>
<desc>lat.=44.517292, lon.=33.984459, Alt.=440.160400m. Speed=0.396000m/h.</desc>
<speed>0.110000</speed>
</trkpt>
<trkpt lat="44.517242" lon="33.984211">
<ele>433.4</ele>
<time>2011-10-11T10:17:53Z</time>
<desc>lat.=44.517242, lon.=33.984211, Alt.=416.496338m. Speed=0.180000m/h.</desc>
<speed>0.050000</speed>
</trkpt>
<trkpt lat="44.517086" lon="33.984333">
<ele>433.9</ele>
<time>2011-10-11T10:18:53Z</time>
<desc>lat.=44.517086, lon.=33.984333, Alt.=415.136963m. Speed=0.576000m/h.</desc>
<speed>0.160000</speed>
</trkpt>
<trkpt lat="44.517216" lon="33.984142">
<ele>433.5</ele>
<time>2011-10-11T10:30:33Z</time>
<desc>lat.=44.517216, lon.=33.984142, Alt.=415.629150m. Speed=0.144000m/h.</desc>
<speed>0.040000</speed>
</trkpt>
<trkpt lat="44.516991" lon="33.983799">
<ele>435.4</ele>
<time>2011-10-11T10:31:28Z</time>
<desc>lat.=44.516991, lon.=33.983799, Alt.=421.941650m. Speed=1.836000m/h.</desc>
<speed>0.510000</speed>
</trkpt>
<trkpt lat="44.517750" lon="33.985489">
<ele>427.1</ele>
<time>2011-10-11T10:38:43Z</time>
<desc>lat.=44.517750, lon.=33.985489, Alt.=419.590088m. Speed=5.904000m/h.</desc>
<speed>1.640000</speed>
</trkpt>
<trkpt lat="44.518257" lon="33.985859">
<ele>424.5</ele>
<time>2011-10-11T10:39:33Z</time>
<desc>lat.=44.518257, lon.=33.985859, Alt.=406.332275m. Speed=4.212000m/h.</desc>
<speed>1.170000</speed>
</trkpt>
<trkpt lat="44.518799" lon="33.985352">
<ele>413.7</ele>
<time>2011-10-11T10:40:38Z</time>
<desc>lat.=44.518799, lon.=33.985352, Alt.=399.566650m. Speed=2.520000m/h.</desc>
<speed>0.700000</speed>
</trkpt>
<trkpt lat="44.518921" lon="33.985523">
<ele>414.3</ele>
<time>2011-10-11T10:41:43Z</time>
<desc>lat.=44.518921, lon.=33.985523, Alt.=399.511963m. Speed=0.252000m/h.</desc>
<speed>0.070000</speed>
</trkpt>
<trkpt lat="44.518913" lon="33.986374">
<ele>418.9</ele>
<time>2011-10-11T10:44:33Z</time>
<desc>lat.=44.518913, lon.=33.986374, Alt.=399.777588m. Speed=5.004000m/h.</desc>
<speed>1.390000</speed>
</trkpt>
<trkpt lat="44.519554" lon="33.987579">
<ele>429.9</ele>
<time>2011-10-11T10:45:53Z</time>
<desc>lat.=44.519554, lon.=33.987579, Alt.=405.152588m. Speed=3.780000m/h.</desc>
<speed>1.050000</speed>
</trkpt>
<trkpt lat="44.519562" lon="33.988174">
<ele>435.2</ele>
<time>2011-10-11T10:46:43Z</time>
<desc>lat.=44.519562, lon.=33.988174, Alt.=405.316650m. Speed=2.916000m/h.</desc>
<speed>0.810000</speed>
</trkpt>
<trkpt lat="44.519894" lon="33.988564">
<ele>446.0</ele>
<time>2011-10-11T10:47:28Z</time>
<desc>lat.=44.519894, lon.=33.988564, Alt.=407.496338m. Speed=4.356000m/h.</desc>
<speed>1.210000</speed>
</trkpt>
<trkpt lat="44.520046" lon="33.989101">
<ele>451.9</ele>
<time>2011-10-11T10:48:23Z</time>
<desc>lat.=44.520046, lon.=33.989101, Alt.=423.801025m. Speed=2.844000m/h.</desc>
<speed>0.790000</speed>
</trkpt>
<trkpt lat="44.520443" lon="33.989491">
<ele>468.4</ele>
<time>2011-10-11T10:50:18Z</time>
<desc>lat.=44.520443, lon.=33.989491, Alt.=439.363525m. Speed=3.924000m/h.</desc>
<speed>1.090000</speed>
</trkpt>
<trkpt lat="44.520611" lon="33.990276">
<ele>483.3</ele>
<time>2011-10-11T10:51:28Z</time>
<desc>lat.=44.520611, lon.=33.990276, Alt.=452.199463m. Speed=3.744000m/h.</desc>
<speed>1.040000</speed>
</trkpt>
<trkpt lat="44.520557" lon="33.991337">
<ele>497.6</ele>
<time>2011-10-11T10:54:28Z</time>
<desc>lat.=44.520557, lon.=33.991337, Alt.=476.816650m. Speed=2.988000m/h.</desc>
<speed>0.830000</speed>
</trkpt>
<trkpt lat="44.520851" lon="33.992165">
<ele>521.6</ele>
<time>2011-10-11T10:56:08Z</time>
<desc>lat.=44.520851, lon.=33.992165, Alt.=489.644775m. Speed=2.808000m/h.</desc>
<speed>0.780000</speed>
</trkpt>
<trkpt lat="44.520157" lon="33.992886">
<ele>522.7</ele>
<time>2011-10-11T10:58:33Z</time>
<desc>lat.=44.520157, lon.=33.992886, Alt.=498.504150m. Speed=3.996000m/h.</desc>
<speed>1.110000</speed>
</trkpt>
<trkpt lat="44.520164" lon="33.994114">
<ele>526.7</ele>
<time>2011-10-11T10:59:53Z</time>
<desc>lat.=44.520164, lon.=33.994114, Alt.=496.816650m. Speed=5.364000m/h.</desc>
<speed>1.490000</speed>
</trkpt>
<trkpt lat="44.519867" lon="33.995350">
<ele>515.6</ele>
<time>2011-10-11T11:01:13Z</time>
<desc>lat.=44.519867, lon.=33.995350, Alt.=502.832275m. Speed=5.184000m/h.</desc>
<speed>1.440000</speed>
</trkpt>
<trkpt lat="44.519894" lon="33.996361">
<ele>516.1</ele>
<time>2011-10-11T11:02:33Z</time>
<desc>lat.=44.519894, lon.=33.996361, Alt.=503.504150m. Speed=3.348000m/h.</desc>
<speed>0.930000</speed>
</trkpt>
<trkpt lat="44.520283" lon="33.996937">
<ele>511.3</ele>
<time>2011-10-11T11:03:58Z</time>
<desc>lat.=44.520283, lon.=33.996937, Alt.=496.558838m. Speed=2.952000m/h.</desc>
<speed>0.820000</speed>
</trkpt>
<trkpt lat="44.520844" lon="33.997311">
<ele>509.0</ele>
<time>2011-10-11T11:04:58Z</time>
<desc>lat.=44.520844, lon.=33.997311, Alt.=488.847900m. Speed=1.944000m/h.</desc>
<speed>0.540000</speed>
</trkpt>
<trkpt lat="44.520721" lon="33.997784">
<ele>505.8</ele>
<time>2011-10-11T11:06:23Z</time>
<desc>lat.=44.520721, lon.=33.997784, Alt.=486.340088m. Speed=0.540000m/h.</desc>
<speed>0.150000</speed>
</trkpt>
<trkpt lat="44.520584" lon="33.997665">
<ele>508.9</ele>
<time>2011-10-11T11:06:53Z</time>
<desc>lat.=44.520584, lon.=33.997665, Alt.=483.972900m. Speed=0.396000m/h.</desc>
<speed>0.110000</speed>
</trkpt>
<trkpt lat="44.521591" lon="34.000538">
<ele>522.2</ele>
<time>2011-10-11T11:12:23Z</time>
<desc>lat.=44.521591, lon.=34.000538, Alt.=497.386963m. Speed=4.716000m/h.</desc>
<speed>1.310000</speed>
</trkpt>
<trkpt lat="44.522255" lon="34.000683">
<ele>522.1</ele>
<time>2011-10-11T11:13:48Z</time>
<desc>lat.=44.522255, lon.=34.000683, Alt.=513.492676m. Speed=3.852000m/h.</desc>
<speed>1.070000</speed>
</trkpt>
<trkpt lat="44.522690" lon="34.001335">
<ele>516.7</ele>
<time>2011-10-11T11:14:53Z</time>
<desc>lat.=44.522690, lon.=34.001335, Alt.=511.879150m. Speed=2.736000m/h.</desc>
<speed>0.760000</speed>
</trkpt>
<trkpt lat="44.522491" lon="34.002373">
<ele>519.9</ele>
<time>2011-10-11T11:16:13Z</time>
<desc>lat.=44.522491, lon.=34.002373, Alt.=497.988525m. Speed=4.176000m/h.</desc>
<speed>1.160000</speed>
</trkpt>
<trkpt lat="44.522099" lon="34.002560">
<ele>527.8</ele>
<time>2011-10-11T11:17:08Z</time>
<desc>lat.=44.522099, lon.=34.002560, Alt.=496.269775m. Speed=0.720000m/h.</desc>
<speed>0.200000</speed>
</trkpt>
<trkpt lat="44.522053" lon="34.003029">
<ele>539.5</ele>
<time>2011-10-11T11:17:43Z</time>
<desc>lat.=44.522053, lon.=34.003029, Alt.=500.215088m. Speed=6.696000m/h.</desc>
<speed>1.860000</speed>
</trkpt>
<trkpt lat="44.522213" lon="34.003227">
<ele>537.9</ele>
<time>2011-10-11T11:18:18Z</time>
<desc>lat.=44.522213, lon.=34.003227, Alt.=503.644775m. Speed=2.952000m/h.</desc>
<speed>0.820000</speed>
</trkpt>
<trkpt lat="44.522060" lon="34.003361">
<ele>545.3</ele>
<time>2011-10-11T11:18:48Z</time>
<desc>lat.=44.522060, lon.=34.003361, Alt.=504.613525m. Speed=2.520000m/h.</desc>
<speed>0.700000</speed>
</trkpt>
<trkpt lat="44.522949" lon="34.002724">
<ele>525.2</ele>
<time>2011-10-11T11:20:33Z</time>
<desc>lat.=44.522949, lon.=34.002724, Alt.=507.926025m. Speed=2.268000m/h.</desc>
<speed>0.630000</speed>
</trkpt>
<trkpt lat="44.522491" lon="34.003208">
<ele>530.2</ele>
<time>2011-10-11T11:21:03Z</time>
<desc>lat.=44.522491, lon.=34.003208, Alt.=507.402588m. Speed=1.368000m/h.</desc>
<speed>0.380000</speed>
</trkpt>
<trkpt lat="44.522327" lon="34.003239">
<ele>534.4</ele>
<time>2011-10-11T11:21:48Z</time>
<desc>lat.=44.522327, lon.=34.003239, Alt.=514.992676m. Speed=2.376000m/h.</desc>
<speed>0.660000</speed>
</trkpt>
<trkpt lat="44.522465" lon="34.003033">
<ele>527.5</ele>
<time>2011-10-11T11:22:18Z</time>
<desc>lat.=44.522465, lon.=34.003033, Alt.=517.227051m. Speed=0.216000m/h.</desc>
<speed>0.060000</speed>
</trkpt>
<trkpt lat="44.522232" lon="34.003181">
<ele>536.4</ele>
<time>2011-10-11T11:23:08Z</time>
<desc>lat.=44.522232, lon.=34.003181, Alt.=521.461426m. Speed=0.144000m/h.</desc>
<speed>0.040000</speed>
</trkpt>
<trkpt lat="44.522316" lon="34.003105">
<ele>532.2</ele>
<time>2011-10-11T11:23:23Z</time>
<desc>lat.=44.522316, lon.=34.003105, Alt.=521.180176m. Speed=0.396000m/h.</desc>
<speed>0.110000</speed>
</trkpt>
<trkpt lat="44.522518" lon="34.003571">
<ele>536.3</ele>
<time>2011-10-11T11:24:28Z</time>
<desc>lat.=44.522518, lon.=34.003571, Alt.=514.180176m. Speed=0.504000m/h.</desc>
<speed>0.140000</speed>
</trkpt>
<trkpt lat="44.522438" lon="34.004070">
<ele>556.3</ele>
<time>2011-10-11T11:25:33Z</time>
<desc>lat.=44.522438, lon.=34.004070, Alt.=522.445801m. Speed=1.584000m/h.</desc>
<speed>0.440000</speed>
</trkpt>
<trkpt lat="44.522175" lon="34.004196">
<ele>572.6</ele>
<time>2011-10-11T11:29:43Z</time>
<desc>lat.=44.522175, lon.=34.004196, Alt.=541.398926m. Speed=1.548000m/h.</desc>
<speed>0.430000</speed>
</trkpt>
<trkpt lat="44.522484" lon="34.003914">
<ele>547.5</ele>
<time>2011-10-11T11:32:43Z</time>
<desc>lat.=44.522484, lon.=34.003914, Alt.=550.945801m. Speed=0.576000m/h.</desc>
<speed>0.160000</speed>
</trkpt>
<trkpt lat="44.522209" lon="34.004128">
<ele>567.9</ele>
<time>2011-10-11T11:33:23Z</time>
<desc>lat.=44.522209, lon.=34.004128, Alt.=551.914551m. Speed=0.036000m/h.</desc>
<speed>0.010000</speed>
</trkpt>
<trkpt lat="44.522621" lon="34.004078">
<ele>550.3</ele>
<time>2011-10-11T11:36:53Z</time>
<desc>lat.=44.522621, lon.=34.004078, Alt.=542.914551m. Speed=0.756000m/h.</desc>
<speed>0.210000</speed>
</trkpt>
<trkpt lat="44.522854" lon="34.003559">
<ele>528.5</ele>
<time>2011-10-11T11:38:03Z</time>
<desc>lat.=44.522854, lon.=34.003559, Alt.=524.867676m. Speed=6.372000m/h.</desc>
<speed>1.770000</speed>
</trkpt>
<trkpt lat="44.523487" lon="34.004658">
<ele>540.4</ele>
<time>2011-10-11T11:40:08Z</time>
<desc>lat.=44.523487, lon.=34.004658, Alt.=523.352051m. Speed=5.112000m/h.</desc>
<speed>1.420000</speed>
</trkpt>
<trkpt lat="44.524269" lon="34.005238">
<ele>545.7</ele>
<time>2011-10-11T11:42:13Z</time>
<desc>lat.=44.524269, lon.=34.005238, Alt.=525.148926m. Speed=2.340000m/h.</desc>
<speed>0.650000</speed>
</trkpt>
<trkpt lat="44.524303" lon="34.005562">
<ele>548.3</ele>
<time>2011-10-11T11:43:33Z</time>
<desc>lat.=44.524303, lon.=34.005562, Alt.=517.836426m. Speed=3.384000m/h.</desc>
<speed>0.940000</speed>
</trkpt>
<trkpt lat="44.525085" lon="34.006439">
<ele>552.9</ele>
<time>2011-10-11T11:45:58Z</time>
<desc>lat.=44.525085, lon.=34.006439, Alt.=532.617676m. Speed=2.520000m/h.</desc>
<speed>0.700000</speed>
</trkpt>
<trkpt lat="44.525154" lon="34.006813">
<ele>551.7</ele>
<time>2011-10-11T11:46:38Z</time>
<desc>lat.=44.525154, lon.=34.006813, Alt.=533.602051m. Speed=5.184000m/h.</desc>
<speed>1.440000</speed>
</trkpt>
<trkpt lat="44.525852" lon="34.007862">
<ele>574.4</ele>
<time>2011-10-11T11:48:58Z</time>
<desc>lat.=44.525852, lon.=34.007862, Alt.=545.383301m. Speed=4.932000m/h.</desc>
<speed>1.370000</speed>
</trkpt>
<trkpt lat="44.526150" lon="34.009125">
<ele>660.3</ele>
<time>2011-10-11T11:59:43Z</time>
<desc>lat.=44.526150, lon.=34.009125, Alt.=532.523926m. Speed=3.096000m/h.</desc>
<speed>0.860000</speed>
</trkpt>
<trkpt lat="44.526608" lon="34.009720">
<ele>728.1</ele>
<time>2011-10-11T12:01:18Z</time>
<desc>lat.=44.526608, lon.=34.009720, Alt.=532.367676m. Speed=0.432000m/h.</desc>
<speed>0.120000</speed>
</trkpt>
<trkpt lat="44.526726" lon="34.010246">
<ele>736.8</ele>
<time>2011-10-11T12:02:43Z</time>
<desc>lat.=44.526726, lon.=34.010246, Alt.=536.039551m. Speed=2.124000m/h.</desc>
<speed>0.590000</speed>
</trkpt>
<trkpt lat="44.526485" lon="34.010967">
<ele>716.3</ele>
<time>2011-10-11T12:06:03Z</time>
<desc>lat.=44.526485, lon.=34.010967, Alt.=551.648926m. Speed=2.376000m/h.</desc>
<speed>0.660000</speed>
</trkpt>
<trkpt lat="44.526661" lon="34.011345">
<ele>686.2</ele>
<time>2011-10-11T12:06:53Z</time>
<desc>lat.=44.526661, lon.=34.011345, Alt.=552.086426m. Speed=1.548000m/h.</desc>
<speed>0.430000</speed>
</trkpt>
<trkpt lat="44.526535" lon="34.011379">
<ele>678.9</ele>
<time>2011-10-11T12:06:58Z</time>
<desc>lat.=44.526535, lon.=34.011379, Alt.=552.914551m. Speed=0.540000m/h.</desc>
<speed>0.150000</speed>
</trkpt>
<trkpt lat="44.526741" lon="34.011127">
<ele>706.7</ele>
<time>2011-10-11T12:07:48Z</time>
<desc>lat.=44.526741, lon.=34.011127, Alt.=556.414551m. Speed=2.412000m/h.</desc>
<speed>0.670000</speed>
</trkpt>
<trkpt lat="44.527016" lon="34.012222">
<ele>704.6</ele>
<time>2011-10-11T12:09:28Z</time>
<desc>lat.=44.527016, lon.=34.012222, Alt.=569.336426m. Speed=2.412000m/h.</desc>
<speed>0.670000</speed>
</trkpt>
<trkpt lat="44.527317" lon="34.012428">
<ele>711.4</ele>
<time>2011-10-11T12:10:53Z</time>
<desc>lat.=44.527317, lon.=34.012428, Alt.=574.289551m. Speed=3.924000m/h.</desc>
<speed>1.090000</speed>
</trkpt>
<trkpt lat="44.527508" lon="34.013065">
<ele>719.8</ele>
<time>2011-10-11T12:12:13Z</time>
<desc>lat.=44.527508, lon.=34.013065, Alt.=567.727051m. Speed=2.232000m/h.</desc>
<speed>0.620000</speed>
</trkpt>
<trkpt lat="44.528465" lon="34.012928">
<ele>731.0</ele>
<time>2011-10-11T12:13:18Z</time>
<desc>lat.=44.528465, lon.=34.012928, Alt.=553.289551m. Speed=1.440000m/h.</desc>
<speed>0.400000</speed>
</trkpt>
<trkpt lat="44.528622" lon="34.013409">
<ele>730.6</ele>
<time>2011-10-11T12:14:38Z</time>
<desc>lat.=44.528622, lon.=34.013409, Alt.=549.102051m. Speed=0.864000m/h.</desc>
<speed>0.240000</speed>
</trkpt>
<trkpt lat="44.528515" lon="34.013584">
<ele>723.6</ele>
<time>2011-10-11T12:14:58Z</time>
<desc>lat.=44.528515, lon.=34.013584, Alt.=548.023926m. Speed=2.304000m/h.</desc>
<speed>0.640000</speed>
</trkpt>
<trkpt lat="44.528961" lon="34.013672">
<ele>721.6</ele>
<time>2011-10-11T12:15:58Z</time>
<desc>lat.=44.528961, lon.=34.013672, Alt.=551.086426m. Speed=4.968000m/h.</desc>
<speed>1.380000</speed>
</trkpt>
<trkpt lat="44.528893" lon="34.013786">
<ele>716.2</ele>
<time>2011-10-11T12:16:23Z</time>
<desc>lat.=44.528893, lon.=34.013786, Alt.=552.539551m. Speed=0.864000m/h.</desc>
<speed>0.240000</speed>
</trkpt>
<trkpt lat="44.529202" lon="34.013931">
<ele>728.6</ele>
<time>2011-10-11T12:17:43Z</time>
<desc>lat.=44.529202, lon.=34.013931, Alt.=556.148926m. Speed=0.684000m/h.</desc>
<speed>0.190000</speed>
</trkpt>
<trkpt lat="44.528980" lon="34.014233">
<ele>704.7</ele>
<time>2011-10-11T12:18:08Z</time>
<desc>lat.=44.528980, lon.=34.014233, Alt.=558.086426m. Speed=2.232000m/h.</desc>
<speed>0.620000</speed>
</trkpt>
<trkpt lat="44.527950" lon="34.014450">
<ele>724.6</ele>
<time>2011-10-11T12:18:43Z</time>
<desc>lat.=44.527950, lon.=34.014450, Alt.=563.492676m. Speed=1.224000m/h.</desc>
<speed>0.340000</speed>
</trkpt>
<trkpt lat="44.528156" lon="34.015251">
<ele>707.8</ele>
<time>2011-10-11T12:19:13Z</time>
<desc>lat.=44.528156, lon.=34.015251, Alt.=568.352051m. Speed=5.616000m/h.</desc>
<speed>1.560000</speed>
</trkpt>
<trkpt lat="44.529808" lon="34.016247">
<ele>785.6</ele>
<time>2011-10-11T12:21:59Z</time>
<desc>lat.=44.529808, lon.=34.016247, Alt.=563.664551m. Speed=1.404000m/h.</desc>
<speed>0.390000</speed>
</trkpt>
<trkpt lat="44.529758" lon="34.016560">
<ele>781.1</ele>
<time>2011-10-11T12:22:38Z</time>
<desc>lat.=44.529758, lon.=34.016560, Alt.=564.180176m. Speed=2.880000m/h.</desc>
<speed>0.800000</speed>
</trkpt>
<trkpt lat="44.529854" lon="34.016537">
<ele>788.0</ele>
<time>2011-10-11T12:22:48Z</time>
<desc>lat.=44.529854, lon.=34.016537, Alt.=564.320801m. Speed=2.700000m/h.</desc>
<speed>0.750000</speed>
</trkpt>
<trkpt lat="44.529724" lon="34.016399">
<ele>778.4</ele>
<time>2011-10-11T12:23:18Z</time>
<desc>lat.=44.529724, lon.=34.016399, Alt.=563.633301m. Speed=4.212000m/h.</desc>
<speed>1.170000</speed>
</trkpt>
<trkpt lat="44.530266" lon="34.016346">
<ele>821.5</ele>
<time>2011-10-11T12:23:48Z</time>
<desc>lat.=44.530266, lon.=34.016346, Alt.=563.883301m. Speed=9.144000m/h.</desc>
<speed>2.540000</speed>
</trkpt>
<trkpt lat="44.526054" lon="34.019955">
<ele>857.6</ele>
<time>2011-10-11T12:32:05Z</time>
<desc>lat.=44.526054, lon.=34.019955, Alt.=1337.204102m. Speed=0.540000m/h.</desc>
<speed>0.150000</speed>
</trkpt>
<trkpt lat="44.525951" lon="34.019825">
<ele>860.5</ele>
<time>2011-10-11T12:32:15Z</time>
<desc>lat.=44.525951, lon.=34.019825, Alt.=1352.172852m. Speed=0.828000m/h.</desc>
<speed>0.230000</speed>
</trkpt>
<trkpt lat="44.526104" lon="34.020123">
<ele>856.3</ele>
<time>2011-10-11T12:33:05Z</time>
<desc>lat.=44.526104, lon.=34.020123, Alt.=1355.516602m. Speed=5.184000m/h.</desc>
<speed>1.440000</speed>
</trkpt>
<trkpt lat="44.526184" lon="34.019974">
<ele>852.5</ele>
<time>2011-10-11T12:33:35Z</time>
<desc>lat.=44.526184, lon.=34.019974, Alt.=1356.516602m. Speed=1.656000m/h.</desc>
<speed>0.460000</speed>
</trkpt>
<trkpt lat="44.526562" lon="34.020145">
<ele>838.3</ele>
<time>2011-10-11T12:34:20Z</time>
<desc>lat.=44.526562, lon.=34.020145, Alt.=1354.829102m. Speed=1.944000m/h.</desc>
<speed>0.540000</speed>
</trkpt>
<trkpt lat="44.526268" lon="34.019855">
<ele>848.5</ele>
<time>2011-10-11T12:34:50Z</time>
<desc>lat.=44.526268, lon.=34.019855, Alt.=1351.547852m. Speed=1.188000m/h.</desc>
<speed>0.330000</speed>
</trkpt>
<trkpt lat="44.526299" lon="34.020336">
<ele>849.2</ele>
<time>2011-10-11T12:35:10Z</time>
<desc>lat.=44.526299, lon.=34.020336, Alt.=1349.547852m. Speed=1.584000m/h.</desc>
<speed>0.440000</speed>
</trkpt>
<trkpt lat="44.526310" lon="34.020111">
<ele>848.0</ele>
<time>2011-10-11T12:35:35Z</time>
<desc>lat.=44.526310, lon.=34.020111, Alt.=1347.672852m. Speed=4.104000m/h.</desc>
<speed>1.140000</speed>
</trkpt>
<trkpt lat="44.526150" lon="34.020096">
<ele>854.4</ele>
<time>2011-10-11T12:35:50Z</time>
<desc>lat.=44.526150, lon.=34.020096, Alt.=1339.797852m. Speed=2.700000m/h.</desc>
<speed>0.750000</speed>
</trkpt>
<trkpt lat="44.526253" lon="34.020264">
<ele>850.8</ele>
<time>2011-10-11T12:36:10Z</time>
<desc>lat.=44.526253, lon.=34.020264, Alt.=1339.204102m. Speed=2.304000m/h.</desc>
<speed>0.640000</speed>
</trkpt>
<trkpt lat="44.526127" lon="34.020271">
<ele>855.6</ele>
<time>2011-10-11T12:36:25Z</time>
<desc>lat.=44.526127, lon.=34.020271, Alt.=1338.735352m. Speed=2.484000m/h.</desc>
<speed>0.690000</speed>
</trkpt>
<trkpt lat="44.526180" lon="34.020527">
<ele>853.9</ele>
<time>2011-10-11T12:36:35Z</time>
<desc>lat.=44.526180, lon.=34.020527, Alt.=1338.922852m. Speed=4.356000m/h.</desc>
<speed>1.210000</speed>
</trkpt>
<trkpt lat="44.526466" lon="34.020508">
<ele>842.6</ele>
<time>2011-10-11T12:37:11Z</time>
<desc>lat.=44.526466, lon.=34.020508, Alt.=1337.891602m. Speed=0.504000m/h.</desc>
<speed>0.140000</speed>
</trkpt>
<trkpt lat="44.526379" lon="34.020325">
<ele>845.8</ele>
<time>2011-10-11T12:37:21Z</time>
<desc>lat.=44.526379, lon.=34.020325, Alt.=1337.110352m. Speed=0.612000m/h.</desc>
<speed>0.170000</speed>
</trkpt>
<trkpt lat="44.526138" lon="34.020439">
<ele>855.5</ele>
<time>2011-10-11T12:37:36Z</time>
<desc>lat.=44.526138, lon.=34.020439, Alt.=1336.704102m. Speed=0.648000m/h.</desc>
<speed>0.180000</speed>
</trkpt>
<trkpt lat="44.526257" lon="34.020527">
<ele>851.2</ele>
<time>2011-10-11T12:37:46Z</time>
<desc>lat.=44.526257, lon.=34.020527, Alt.=1336.610352m. Speed=2.736000m/h.</desc>
<speed>0.760000</speed>
</trkpt>
<trkpt lat="44.526054" lon="34.020428">
<ele>858.5</ele>
<time>2011-10-11T12:38:16Z</time>
<desc>lat.=44.526054, lon.=34.020428, Alt.=1334.579102m. Speed=0.864000m/h.</desc>
<speed>0.240000</speed>
</trkpt>
<trkpt lat="44.538033" lon="34.021427">
<ele>854.2</ele>
<time>2011-10-11T12:38:49Z</time>
<desc>lat.=44.538033, lon.=34.021427, Alt.=559.633301m. Speed=3.852000m/h.</desc>
<speed>1.070000</speed>
</trkpt>
<trkpt lat="44.530266" lon="34.018909">
<ele>792.0</ele>
<time>2011-10-11T12:41:00Z</time>
<desc>lat.=44.530266, lon.=34.018909, Alt.=561.164551m. Speed=2.664000m/h.</desc>
<speed>0.740000</speed>
</trkpt>
<trkpt lat="44.529877" lon="34.018921">
<ele>759.6</ele>
<time>2011-10-11T12:41:05Z</time>
<desc>lat.=44.529877, lon.=34.018921, Alt.=560.836426m. Speed=2.376000m/h.</desc>
<speed>0.660000</speed>
</trkpt>
<trkpt lat="44.530022" lon="34.019333">
<ele>775.4</ele>
<time>2011-10-11T12:42:00Z</time>
<desc>lat.=44.530022, lon.=34.019333, Alt.=564.117676m. Speed=4.284000m/h.</desc>
<speed>1.190000</speed>
</trkpt>
<trkpt lat="44.529823" lon="34.019539">
<ele>750.8</ele>
<time>2011-10-11T12:42:25Z</time>
<desc>lat.=44.529823, lon.=34.019539, Alt.=563.836426m. Speed=1.980000m/h.</desc>
<speed>0.550000</speed>
</trkpt>
<trkpt lat="44.529881" lon="34.019436">
<ele>757.9</ele>
<time>2011-10-11T12:42:30Z</time>
<desc>lat.=44.529881, lon.=34.019436, Alt.=564.070801m. Speed=1.152000m/h.</desc>
<speed>0.320000</speed>
</trkpt>
<trkpt lat="44.530125" lon="34.020050">
<ele>785.2</ele>
<time>2011-10-11T12:43:25Z</time>
<desc>lat.=44.530125, lon.=34.020050, Alt.=564.023926m. Speed=3.420000m/h.</desc>
<speed>0.950000</speed>
</trkpt>
<trkpt lat="44.530029" lon="34.020252">
<ele>772.7</ele>
<time>2011-10-11T12:43:50Z</time>
<desc>lat.=44.530029, lon.=34.020252, Alt.=563.367676m. Speed=1.152000m/h.</desc>
<speed>0.320000</speed>
</trkpt>
<trkpt lat="44.530151" lon="34.020584">
<ele>784.3</ele>
<time>2011-10-11T12:44:25Z</time>
<desc>lat.=44.530151, lon.=34.020584, Alt.=562.852051m. Speed=4.500000m/h.</desc>
<speed>1.250000</speed>
</trkpt>
<trkpt lat="44.529949" lon="34.027695">
<ele>698.7</ele>
<time>2011-10-11T13:25:32Z</time>
<desc>lat.=44.529949, lon.=34.027695, Alt.=801.492676m. Speed=1.800000m/h.</desc>
<speed>0.500000</speed>
</trkpt>
<trkpt lat="44.529839" lon="34.028156">
<ele>701.1</ele>
<time>2011-10-11T13:25:57Z</time>
<desc>lat.=44.529839, lon.=34.028156, Alt.=724.867676m. Speed=3.276000m/h.</desc>
<speed>0.910000</speed>
</trkpt>
<trkpt lat="44.529991" lon="34.029488">
<ele>689.7</ele>
<time>2011-10-11T13:27:57Z</time>
<desc>lat.=44.529991, lon.=34.029488, Alt.=723.086426m. Speed=2.844000m/h.</desc>
<speed>0.790000</speed>
</trkpt>
<trkpt lat="44.529869" lon="34.029545">
<ele>694.5</ele>
<time>2011-10-11T13:28:07Z</time>
<desc>lat.=44.529869, lon.=34.029545, Alt.=721.805176m. Speed=3.024000m/h.</desc>
<speed>0.840000</speed>
</trkpt>
<trkpt lat="44.529900" lon="34.030041">
<ele>690.1</ele>
<time>2011-10-11T13:28:37Z</time>
<desc>lat.=44.529900, lon.=34.030041, Alt.=713.695801m. Speed=3.492000m/h.</desc>
<speed>0.970000</speed>
</trkpt>
<trkpt lat="44.529636" lon="34.030159">
<ele>692.4</ele>
<time>2011-10-11T13:29:07Z</time>
<desc>lat.=44.529636, lon.=34.030159, Alt.=704.477051m. Speed=2.952000m/h.</desc>
<speed>0.820000</speed>
</trkpt>
<trkpt lat="44.529530" lon="34.030571">
<ele>688.4</ele>
<time>2011-10-11T13:29:52Z</time>
<desc>lat.=44.529530, lon.=34.030571, Alt.=703.508301m. Speed=3.168000m/h.</desc>
<speed>0.880000</speed>
</trkpt>
<trkpt lat="44.528805" lon="34.031326">
<ele>703.6</ele>
<time>2011-10-11T13:32:07Z</time>
<desc>lat.=44.528805, lon.=34.031326, Alt.=706.789551m. Speed=2.880000m/h.</desc>
<speed>0.800000</speed>
</trkpt>
<trkpt lat="44.528942" lon="34.031818">
<ele>692.7</ele>
<time>2011-10-11T13:32:47Z</time>
<desc>lat.=44.528942, lon.=34.031818, Alt.=711.133301m. Speed=2.196000m/h.</desc>
<speed>0.610000</speed>
</trkpt>
<trkpt lat="44.528439" lon="34.031933">
<ele>709.8</ele>
<time>2011-10-11T13:33:32Z</time>
<desc>lat.=44.528439, lon.=34.031933, Alt.=713.336426m. Speed=2.844000m/h.</desc>
<speed>0.790000</speed>
</trkpt>
<trkpt lat="44.528324" lon="34.032627">
<ele>695.6</ele>
<time>2011-10-11T13:37:02Z</time>
<desc>lat.=44.528324, lon.=34.032627, Alt.=706.836426m. Speed=4.140000m/h.</desc>
<speed>1.150000</speed>
</trkpt>
<trkpt lat="44.527988" lon="34.032734">
<ele>711.1</ele>
<time>2011-10-11T13:37:47Z</time>
<desc>lat.=44.527988, lon.=34.032734, Alt.=705.445801m. Speed=2.556000m/h.</desc>
<speed>0.710000</speed>
</trkpt>
<trkpt lat="44.527946" lon="34.033234">
<ele>713.0</ele>
<time>2011-10-11T13:38:32Z</time>
<desc>lat.=44.527946, lon.=34.033234, Alt.=705.039551m. Speed=2.592000m/h.</desc>
<speed>0.720000</speed>
</trkpt>
<trkpt lat="44.528214" lon="34.034718">
<ele>700.8</ele>
<time>2011-10-11T13:40:52Z</time>
<desc>lat.=44.528214, lon.=34.034718, Alt.=707.445801m. Speed=3.024000m/h.</desc>
<speed>0.840000</speed>
</trkpt>
<trkpt lat="44.527622" lon="34.036335">
<ele>690.2</ele>
<time>2011-10-11T13:43:27Z</time>
<desc>lat.=44.527622, lon.=34.036335, Alt.=698.930176m. Speed=1.188000m/h.</desc>
<speed>0.330000</speed>
</trkpt>
<trkpt lat="44.527267" lon="34.036537">
<ele>696.3</ele>
<time>2011-10-11T13:46:12Z</time>
<desc>lat.=44.527267, lon.=34.036537, Alt.=708.711426m. Speed=0.576000m/h.</desc>
<speed>0.160000</speed>
</trkpt>
<trkpt lat="44.527763" lon="34.036575">
<ele>701.3</ele>
<time>2011-10-11T13:47:27Z</time>
<desc>lat.=44.527763, lon.=34.036575, Alt.=710.664551m. Speed=1.584000m/h.</desc>
<speed>0.440000</speed>
</trkpt>
<trkpt lat="44.528328" lon="34.035545">
<ele>709.6</ele>
<time>2011-10-11T13:48:57Z</time>
<desc>lat.=44.528328, lon.=34.035545, Alt.=720.867676m. Speed=0.360000m/h.</desc>
<speed>0.100000</speed>
</trkpt>
<trkpt lat="44.528793" lon="34.034138">
<ele>717.9</ele>
<time>2011-10-11T13:50:27Z</time>
<desc>lat.=44.528793, lon.=34.034138, Alt.=724.211426m. Speed=3.600000m/h.</desc>
<speed>1.000000</speed>
</trkpt>
<trkpt lat="44.530220" lon="34.033600">
<ele>740.8</ele>
<time>2011-10-11T13:53:02Z</time>
<desc>lat.=44.530220, lon.=34.033600, Alt.=741.930176m. Speed=2.484000m/h.</desc>
<speed>0.690000</speed>
</trkpt>
<trkpt lat="44.530128" lon="34.032955">
<ele>746.5</ele>
<time>2011-10-11T13:54:22Z</time>
<desc>lat.=44.530128, lon.=34.032955, Alt.=748.070801m. Speed=1.944000m/h.</desc>
<speed>0.540000</speed>
</trkpt>
<trkpt lat="44.530350" lon="34.032631">
<ele>750.3</ele>
<time>2011-10-11T13:55:12Z</time>
<desc>lat.=44.530350, lon.=34.032631, Alt.=748.602051m. Speed=1.080000m/h.</desc>
<speed>0.300000</speed>
</trkpt>
<trkpt lat="44.530502" lon="34.032570">
<ele>754.1</ele>
<time>2011-10-11T13:55:37Z</time>
<desc>lat.=44.530502, lon.=34.032570, Alt.=750.383301m. Speed=1.152000m/h.</desc>
<speed>0.320000</speed>
</trkpt>
<trkpt lat="44.530670" lon="34.032825">
<ele>756.1</ele>
<time>2011-10-11T13:58:27Z</time>
<desc>lat.=44.530670, lon.=34.032825, Alt.=764.289551m. Speed=0.072000m/h.</desc>
<speed>0.020000</speed>
</trkpt>
<trkpt lat="44.530899" lon="34.032688">
<ele>766.5</ele>
<time>2011-10-11T14:00:57Z</time>
<desc>lat.=44.530899, lon.=34.032688, Alt.=762.633301m. Speed=2.268000m/h.</desc>
<speed>0.630000</speed>
</trkpt>
<trkpt lat="44.531399" lon="34.032078">
<ele>787.5</ele>
<time>2011-10-11T14:02:17Z</time>
<desc>lat.=44.531399, lon.=34.032078, Alt.=777.508301m. Speed=1.692000m/h.</desc>
<speed>0.470000</speed>
</trkpt>
<trkpt lat="44.531555" lon="34.032108">
<ele>794.9</ele>
<time>2011-10-11T14:02:52Z</time>
<desc>lat.=44.531555, lon.=34.032108, Alt.=786.773926m. Speed=2.088000m/h.</desc>
<speed>0.580000</speed>
</trkpt>
<trkpt lat="44.531773" lon="34.031593">
<ele>800.7</ele>
<time>2011-10-11T14:03:47Z</time>
<desc>lat.=44.531773, lon.=34.031593, Alt.=801.648926m. Speed=3.492000m/h.</desc>
<speed>0.970000</speed>
</trkpt>
<trkpt lat="44.532181" lon="34.031479">
<ele>817.2</ele>
<time>2011-10-11T14:04:42Z</time>
<desc>lat.=44.532181, lon.=34.031479, Alt.=812.461426m. Speed=1.260000m/h.</desc>
<speed>0.350000</speed>
</trkpt>
<trkpt lat="44.532623" lon="34.030949">
<ele>820.0</ele>
<time>2011-10-11T14:05:37Z</time>
<desc>lat.=44.532623, lon.=34.030949, Alt.=819.992676m. Speed=2.844000m/h.</desc>
<speed>0.790000</speed>
</trkpt>
<trkpt lat="44.533134" lon="34.030994">
<ele>835.3</ele>
<time>2011-10-11T14:06:37Z</time>
<desc>lat.=44.533134, lon.=34.030994, Alt.=834.992676m. Speed=2.088000m/h.</desc>
<speed>0.580000</speed>
</trkpt>
<trkpt lat="44.533840" lon="34.030479">
<ele>849.4</ele>
<time>2011-10-11T14:08:27Z</time>
<desc>lat.=44.533840, lon.=34.030479, Alt.=849.492676m. Speed=3.168000m/h.</desc>
<speed>0.880000</speed>
</trkpt>
<trkpt lat="44.534714" lon="34.031620">
<ele>862.3</ele>
<time>2011-10-11T14:10:22Z</time>
<desc>lat.=44.534714, lon.=34.031620, Alt.=874.898926m. Speed=4.392000m/h.</desc>
<speed>1.220000</speed>
</trkpt>
<trkpt lat="44.535141" lon="34.031933">
<ele>862.6</ele>
<time>2011-10-11T14:11:02Z</time>
<desc>lat.=44.535141, lon.=34.031933, Alt.=879.492676m. Speed=1.908000m/h.</desc>
<speed>0.530000</speed>
</trkpt>
<trkpt lat="44.535557" lon="34.031918">
<ele>858.7</ele>
<time>2011-10-11T14:11:47Z</time>
<desc>lat.=44.535557, lon.=34.031918, Alt.=869.211426m. Speed=1.512000m/h.</desc>
<speed>0.420000</speed>
</trkpt>
<trkpt lat="44.535908" lon="34.031521">
<ele>845.3</ele>
<time>2011-10-11T14:12:37Z</time>
<desc>lat.=44.535908, lon.=34.031521, Alt.=858.039551m. Speed=1.620000m/h.</desc>
<speed>0.450000</speed>
</trkpt>
<trkpt lat="44.535973" lon="34.030922">
<ele>825.7</ele>
<time>2011-10-11T14:14:02Z</time>
<desc>lat.=44.535973, lon.=34.030922, Alt.=836.242676m. Speed=1.332000m/h.</desc>
<speed>0.370000</speed>
</trkpt>
<trkpt lat="44.536240" lon="34.030552">
<ele>818.0</ele>
<time>2011-10-11T14:15:22Z</time>
<desc>lat.=44.536240, lon.=34.030552, Alt.=826.586426m. Speed=1.800000m/h.</desc>
<speed>0.500000</speed>
</trkpt>
<trkpt lat="44.537449" lon="34.029804">
<ele>783.1</ele>
<time>2011-10-11T14:17:42Z</time>
<desc>lat.=44.537449, lon.=34.029804, Alt.=800.977051m. Speed=2.916000m/h.</desc>
<speed>0.810000</speed>
</trkpt>
<trkpt lat="44.537685" lon="34.029835">
<ele>778.5</ele>
<time>2011-10-11T14:18:02Z</time>
<desc>lat.=44.537685, lon.=34.029835, Alt.=793.477051m. Speed=3.744000m/h.</desc>
<speed>1.040000</speed>
</trkpt>
<trkpt lat="44.537708" lon="34.028366">
<ele>764.1</ele>
<time>2011-10-11T14:21:22Z</time>
<desc>lat.=44.537708, lon.=34.028366, Alt.=755.961426m. Speed=2.700000m/h.</desc>
<speed>0.750000</speed>
</trkpt>
<trkpt lat="44.537167" lon="34.027225">
<ele>776.3</ele>
<time>2011-10-11T14:22:47Z</time>
<desc>lat.=44.537167, lon.=34.027225, Alt.=767.695801m. Speed=2.124000m/h.</desc>
<speed>0.590000</speed>
</trkpt>
<trkpt lat="44.537193" lon="34.026726">
<ele>782.8</ele>
<time>2011-10-11T14:23:17Z</time>
<desc>lat.=44.537193, lon.=34.026726, Alt.=774.711426m. Speed=0.288000m/h.</desc>
<speed>0.080000</speed>
</trkpt>
<trkpt lat="44.536613" lon="34.025341">
<ele>773.8</ele>
<time>2011-10-11T14:24:42Z</time>
<desc>lat.=44.536613, lon.=34.025341, Alt.=769.883301m. Speed=5.220000m/h.</desc>
<speed>1.450000</speed>
</trkpt>
<trkpt lat="44.536312" lon="34.025036">
<ele>774.6</ele>
<time>2011-10-11T14:25:27Z</time>
<desc>lat.=44.536312, lon.=34.025036, Alt.=775.211426m. Speed=5.976000m/h.</desc>
<speed>1.660000</speed>
</trkpt>
<trkpt lat="44.536201" lon="34.024536">
<ele>782.0</ele>
<time>2011-10-11T14:25:52Z</time>
<desc>lat.=44.536201, lon.=34.024536, Alt.=774.180176m. Speed=4.824000m/h.</desc>
<speed>1.340000</speed>
</trkpt>
<trkpt lat="44.535904" lon="34.024452">
<ele>778.8</ele>
<time>2011-10-11T14:26:17Z</time>
<desc>lat.=44.535904, lon.=34.024452, Alt.=775.492676m. Speed=1.548000m/h.</desc>
<speed>0.430000</speed>
</trkpt>
<trkpt lat="44.535686" lon="34.022842">
<ele>778.5</ele>
<time>2011-10-11T14:28:07Z</time>
<desc>lat.=44.535686, lon.=34.022842, Alt.=788.383301m. Speed=1.908000m/h.</desc>
<speed>0.530000</speed>
</trkpt>
<trkpt lat="44.534714" lon="34.022785">
<ele>787.6</ele>
<time>2011-10-11T14:29:32Z</time>
<desc>lat.=44.534714, lon.=34.022785, Alt.=775.039551m. Speed=1.584000m/h.</desc>
<speed>0.440000</speed>
</trkpt>
<trkpt lat="44.534073" lon="34.022205">
<ele>800.6</ele>
<time>2011-10-11T14:31:07Z</time>
<desc>lat.=44.534073, lon.=34.022205, Alt.=787.180176m. Speed=2.196000m/h.</desc>
<speed>0.610000</speed>
</trkpt>
<trkpt lat="44.533775" lon="34.022163">
<ele>806.8</ele>
<time>2011-10-11T14:31:37Z</time>
<desc>lat.=44.533775, lon.=34.022163, Alt.=790.508301m. Speed=2.448000m/h.</desc>
<speed>0.680000</speed>
</trkpt>
<trkpt lat="44.533489" lon="34.021759">
<ele>812.4</ele>
<time>2011-10-11T14:32:32Z</time>
<desc>lat.=44.533489, lon.=34.021759, Alt.=801.961426m. Speed=2.268000m/h.</desc>
<speed>0.630000</speed>
</trkpt>
<trkpt lat="44.532925" lon="34.021564">
<ele>820.6</ele>
<time>2011-10-11T14:33:22Z</time>
<desc>lat.=44.532925, lon.=34.021564, Alt.=805.492676m. Speed=3.708000m/h.</desc>
<speed>1.030000</speed>
</trkpt>
<trkpt lat="44.532665" lon="34.020912">
<ele>825.1</ele>
<time>2011-10-11T14:34:17Z</time>
<desc>lat.=44.532665, lon.=34.020912, Alt.=813.133301m. Speed=4.176000m/h.</desc>
<speed>1.160000</speed>
</trkpt>
<trkpt lat="44.532314" lon="34.020599">
<ele>822.0</ele>
<time>2011-10-11T14:34:52Z</time>
<desc>lat.=44.532314, lon.=34.020599, Alt.=814.258301m. Speed=4.536000m/h.</desc>
<speed>1.260000</speed>
</trkpt>
<trkpt lat="44.532146" lon="34.019897">
<ele>821.8</ele>
<time>2011-10-11T14:35:37Z</time>
<desc>lat.=44.532146, lon.=34.019897, Alt.=813.789551m. Speed=4.536000m/h.</desc>
<speed>1.260000</speed>
</trkpt>
<trkpt lat="44.531895" lon="34.019550">
<ele>825.2</ele>
<time>2011-10-11T14:36:12Z</time>
<desc>lat.=44.531895, lon.=34.019550, Alt.=820.211426m. Speed=2.736000m/h.</desc>
<speed>0.760000</speed>
</trkpt>
<trkpt lat="44.531395" lon="34.019302">
<ele>825.1</ele>
<time>2011-10-11T14:36:47Z</time>
<desc>lat.=44.531395, lon.=34.019302, Alt.=820.883301m. Speed=2.556000m/h.</desc>
<speed>0.710000</speed>
</trkpt>
<trkpt lat="44.530926" lon="34.019459">
<ele>815.9</ele>
<time>2011-10-11T14:37:22Z</time>
<desc>lat.=44.530926, lon.=34.019459, Alt.=809.164551m. Speed=5.148000m/h.</desc>
<speed>1.430000</speed>
</trkpt>
<trkpt lat="44.530708" lon="34.019260">
<ele>814.0</ele>
<time>2011-10-11T14:38:07Z</time>
<desc>lat.=44.530708, lon.=34.019260, Alt.=802.742676m. Speed=0.504000m/h.</desc>
<speed>0.140000</speed>
</trkpt>
<trkpt lat="44.530842" lon="34.019054">
<ele>815.5</ele>
<time>2011-10-11T14:38:37Z</time>
<desc>lat.=44.530842, lon.=34.019054, Alt.=807.617676m. Speed=4.608000m/h.</desc>
<speed>1.280000</speed>
</trkpt>
<trkpt lat="44.531025" lon="34.017437">
<ele>826.9</ele>
<time>2011-10-11T14:41:07Z</time>
<desc>lat.=44.531025, lon.=34.017437, Alt.=820.773926m. Speed=0.504000m/h.</desc>
<speed>0.140000</speed>
</trkpt>
<trkpt lat="44.530651" lon="34.016663">
<ele>826.9</ele>
<time>2011-10-11T14:42:37Z</time>
<desc>lat.=44.530651, lon.=34.016663, Alt.=823.055176m. Speed=3.420000m/h.</desc>
<speed>0.950000</speed>
</trkpt>
<trkpt lat="44.530277" lon="34.016510">
<ele>814.8</ele>
<time>2011-10-11T14:43:27Z</time>
<desc>lat.=44.530277, lon.=34.016510, Alt.=820.664551m. Speed=0.108000m/h.</desc>
<speed>0.030000</speed>
</trkpt>
<trkpt lat="44.530491" lon="34.015171">
<ele>821.7</ele>
<time>2011-10-11T14:45:42Z</time>
<desc>lat.=44.530491, lon.=34.015171, Alt.=818.320801m. Speed=2.592000m/h.</desc>
<speed>0.720000</speed>
</trkpt>
<trkpt lat="44.530254" lon="34.014782">
<ele>808.8</ele>
<time>2011-10-11T14:46:07Z</time>
<desc>lat.=44.530254, lon.=34.014782, Alt.=817.477051m. Speed=2.772000m/h.</desc>
<speed>0.770000</speed>
</trkpt>
<trkpt lat="44.530178" lon="34.014263">
<ele>798.2</ele>
<time>2011-10-11T14:46:47Z</time>
<desc>lat.=44.530178, lon.=34.014263, Alt.=817.602051m. Speed=3.744000m/h.</desc>
<speed>1.040000</speed>
</trkpt>
<trkpt lat="44.529377" lon="34.012863">
<ele>788.8</ele>
<time>2011-10-11T14:48:42Z</time>
<desc>lat.=44.529377, lon.=34.012863, Alt.=800.195801m. Speed=4.392000m/h.</desc>
<speed>1.220000</speed>
</trkpt>
<trkpt lat="44.529381" lon="34.010891">
<ele>775.5</ele>
<time>2011-10-11T14:50:57Z</time>
<desc>lat.=44.529381, lon.=34.010891, Alt.=768.711426m. Speed=2.736000m/h.</desc>
<speed>0.760000</speed>
</trkpt>
<trkpt lat="44.528896" lon="34.010017">
<ele>775.4</ele>
<time>2011-10-11T14:52:12Z</time>
<desc>lat.=44.528896, lon.=34.010017, Alt.=766.602051m. Speed=3.636000m/h.</desc>
<speed>1.010000</speed>
</trkpt>
<trkpt lat="44.528801" lon="34.009209">
<ele>780.5</ele>
<time>2011-10-11T14:53:02Z</time>
<desc>lat.=44.528801, lon.=34.009209, Alt.=765.102051m. Speed=3.996000m/h.</desc>
<speed>1.110000</speed>
</trkpt>
<trkpt lat="44.528343" lon="34.008240">
<ele>770.1</ele>
<time>2011-10-11T14:54:07Z</time>
<desc>lat.=44.528343, lon.=34.008240, Alt.=761.164551m. Speed=4.104000m/h.</desc>
<speed>1.140000</speed>
</trkpt>
<trkpt lat="44.527309" lon="34.006729">
<ele>758.6</ele>
<time>2011-10-11T14:56:57Z</time>
<desc>lat.=44.527309, lon.=34.006729, Alt.=751.492676m. Speed=1.044000m/h.</desc>
<speed>0.290000</speed>
</trkpt>
<trkpt lat="44.526627" lon="34.004990">
<ele>741.1</ele>
<time>2011-10-11T14:59:07Z</time>
<desc>lat.=44.526627, lon.=34.004990, Alt.=752.195801m. Speed=2.520000m/h.</desc>
<speed>0.700000</speed>
</trkpt>
<trkpt lat="44.526611" lon="34.003262">
<ele>712.7</ele>
<time>2011-10-11T15:00:57Z</time>
<desc>lat.=44.526611, lon.=34.003262, Alt.=737.305176m. Speed=3.204000m/h.</desc>
<speed>0.890000</speed>
</trkpt>
<trkpt lat="44.526859" lon="34.002346">
<ele>685.5</ele>
<time>2011-10-11T15:02:12Z</time>
<desc>lat.=44.526859, lon.=34.002346, Alt.=705.117676m. Speed=2.088000m/h.</desc>
<speed>0.580000</speed>
</trkpt>
<trkpt lat="44.525959" lon="34.001076">
<ele>628.6</ele>
<time>2011-10-11T15:05:37Z</time>
<desc>lat.=44.525959, lon.=34.001076, Alt.=642.586426m. Speed=1.800000m/h.</desc>
<speed>0.500000</speed>
</trkpt>
<trkpt lat="44.526096" lon="34.000454">
<ele>632.0</ele>
<time>2011-10-11T15:06:32Z</time>
<desc>lat.=44.526096, lon.=34.000454, Alt.=634.211426m. Speed=2.340000m/h.</desc>
<speed>0.650000</speed>
</trkpt>
<trkpt lat="44.525169" lon="34.000004">
<ele>637.8</ele>
<time>2011-10-11T15:08:02Z</time>
<desc>lat.=44.525169, lon.=34.000004, Alt.=645.539551m. Speed=2.592000m/h.</desc>
<speed>0.720000</speed>
</trkpt>
<trkpt lat="44.524792" lon="33.999626">
<ele>632.1</ele>
<time>2011-10-11T15:08:52Z</time>
<desc>lat.=44.524792, lon.=33.999626, Alt.=650.148926m. Speed=1.440000m/h.</desc>
<speed>0.400000</speed>
</trkpt>
<trkpt lat="44.524097" lon="33.999451">
<ele>608.6</ele>
<time>2011-10-11T15:09:42Z</time>
<desc>lat.=44.524097, lon.=33.999451, Alt.=652.133301m. Speed=5.436000m/h.</desc>
<speed>1.510000</speed>
</trkpt>
<trkpt lat="44.522934" lon="33.998432">
<ele>594.7</ele>
<time>2011-10-11T15:11:32Z</time>
<desc>lat.=44.522934, lon.=33.998432, Alt.=631.930176m. Speed=4.464000m/h.</desc>
<speed>1.240000</speed>
</trkpt>
<trkpt lat="44.522388" lon="33.997395">
<ele>576.9</ele>
<time>2011-10-11T15:13:27Z</time>
<desc>lat.=44.522388, lon.=33.997395, Alt.=608.414551m. Speed=2.412000m/h.</desc>
<speed>0.670000</speed>
</trkpt>
<trkpt lat="44.522076" lon="33.997135">
<ele>566.6</ele>
<time>2011-10-11T15:14:17Z</time>
<desc>lat.=44.522076, lon.=33.997135, Alt.=597.133301m. Speed=1.908000m/h.</desc>
<speed>0.530000</speed>
</trkpt>
<trkpt lat="44.521702" lon="33.997383">
<ele>546.8</ele>
<time>2011-10-11T15:15:22Z</time>
<desc>lat.=44.521702, lon.=33.997383, Alt.=587.805176m. Speed=2.412000m/h.</desc>
<speed>0.670000</speed>
</trkpt>
<trkpt lat="44.521790" lon="33.997345">
<ele>550.5</ele>
<time>2011-10-11T15:15:32Z</time>
<desc>lat.=44.521790, lon.=33.997345, Alt.=583.867676m. Speed=1.764000m/h.</desc>
<speed>0.490000</speed>
</trkpt>
<trkpt lat="44.521706" lon="33.997990">
<ele>537.3</ele>
<time>2011-10-11T15:17:42Z</time>
<desc>lat.=44.521706, lon.=33.997990, Alt.=557.414551m. Speed=1.584000m/h.</desc>
<speed>0.440000</speed>
</trkpt>
<trkpt lat="44.520981" lon="33.998177">
<ele>507.0</ele>
<time>2011-10-11T15:19:42Z</time>
<desc>lat.=44.520981, lon.=33.998177, Alt.=526.164551m. Speed=2.448000m/h.</desc>
<speed>0.680000</speed>
</trkpt>
<trkpt lat="44.520721" lon="33.997341">
<ele>504.4</ele>
<time>2011-10-11T15:21:22Z</time>
<desc>lat.=44.520721, lon.=33.997341, Alt.=514.320801m. Speed=3.996000m/h.</desc>
<speed>1.110000</speed>
</trkpt>
<trkpt lat="44.519939" lon="33.996655">
<ele>512.2</ele>
<time>2011-10-11T15:22:42Z</time>
<desc>lat.=44.519939, lon.=33.996655, Alt.=523.164551m. Speed=5.292000m/h.</desc>
<speed>1.470000</speed>
</trkpt>
<trkpt lat="44.519772" lon="33.995773">
<ele>509.9</ele>
<time>2011-10-11T15:23:37Z</time>
<desc>lat.=44.519772, lon.=33.995773, Alt.=514.273926m. Speed=2.916000m/h.</desc>
<speed>0.810000</speed>
</trkpt>
<trkpt lat="44.520256" lon="33.993576">
<ele>526.9</ele>
<time>2011-10-11T15:25:37Z</time>
<desc>lat.=44.520256, lon.=33.993576, Alt.=514.133301m. Speed=3.348000m/h.</desc>
<speed>0.930000</speed>
</trkpt>
<trkpt lat="44.520088" lon="33.992752">
<ele>519.1</ele>
<time>2011-10-11T15:26:27Z</time>
<desc>lat.=44.520088, lon.=33.992752, Alt.=523.586426m. Speed=2.448000m/h.</desc>
<speed>0.680000</speed>
</trkpt>
<trkpt lat="44.520775" lon="33.992043">
<ele>516.8</ele>
<time>2011-10-11T15:27:52Z</time>
<desc>lat.=44.520775, lon.=33.992043, Alt.=521.023926m. Speed=2.088000m/h.</desc>
<speed>0.580000</speed>
</trkpt>
<trkpt lat="44.520412" lon="33.991043">
<ele>490.3</ele>
<time>2011-10-11T15:30:17Z</time>
<desc>lat.=44.520412, lon.=33.991043, Alt.=498.238525m. Speed=2.196000m/h.</desc>
<speed>0.610000</speed>
</trkpt>
<trkpt lat="44.520565" lon="33.990673">
<ele>489.7</ele>
<time>2011-10-11T15:30:47Z</time>
<desc>lat.=44.520565, lon.=33.990673, Alt.=490.074463m. Speed=0.936000m/h.</desc>
<speed>0.260000</speed>
</trkpt>
<trkpt lat="44.520374" lon="33.990036">
<ele>473.7</ele>
<time>2011-10-11T15:32:12Z</time>
<desc>lat.=44.520374, lon.=33.990036, Alt.=483.176025m. Speed=1.764000m/h.</desc>
<speed>0.490000</speed>
</trkpt>
<trkpt lat="44.520420" lon="33.989666">
<ele>469.7</ele>
<time>2011-10-11T15:32:57Z</time>
<desc>lat.=44.520420, lon.=33.989666, Alt.=479.863525m. Speed=1.080000m/h.</desc>
<speed>0.300000</speed>
</trkpt>
<trkpt lat="44.519627" lon="33.988316">
<ele>438.1</ele>
<time>2011-10-11T15:35:12Z</time>
<desc>lat.=44.519627, lon.=33.988316, Alt.=458.496338m. Speed=1.656000m/h.</desc>
<speed>0.460000</speed>
</trkpt>
<trkpt lat="44.519344" lon="33.986935">
<ele>423.6</ele>
<time>2011-10-11T15:36:37Z</time>
<desc>lat.=44.519344, lon.=33.986935, Alt.=444.590088m. Speed=1.980000m/h.</desc>
<speed>0.550000</speed>
</trkpt>
<trkpt lat="44.519321" lon="33.986042">
<ele>419.6</ele>
<time>2011-10-11T15:37:42Z</time>
<desc>lat.=44.519321, lon.=33.986042, Alt.=442.097900m. Speed=1.728000m/h.</desc>
<speed>0.480000</speed>
</trkpt>
<trkpt lat="44.518909" lon="33.986378">
<ele>419.0</ele>
<time>2011-10-11T15:38:42Z</time>
<desc>lat.=44.518909, lon.=33.986378, Alt.=425.949463m. Speed=1.476000m/h.</desc>
<speed>0.410000</speed>
</trkpt>
<trkpt lat="44.518795" lon="33.985435">
<ele>413.3</ele>
<time>2011-10-11T15:40:17Z</time>
<desc>lat.=44.518795, lon.=33.985435, Alt.=426.371338m. Speed=0.828000m/h.</desc>
<speed>0.230000</speed>
</trkpt>
<trkpt lat="44.518482" lon="33.985714">
<ele>420.4</ele>
<time>2011-10-11T15:41:12Z</time>
<desc>lat.=44.518482, lon.=33.985714, Alt.=422.691650m. Speed=1.044000m/h.</desc>
<speed>0.290000</speed>
</trkpt>
<trkpt lat="44.518074" lon="33.985710">
<ele>426.5</ele>
<time>2011-10-11T15:41:47Z</time>
<desc>lat.=44.518074, lon.=33.985710, Alt.=422.176025m. Speed=2.628000m/h.</desc>
<speed>0.730000</speed>
</trkpt>
<trkpt lat="44.517612" lon="33.985214">
<ele>427.9</ele>
<time>2011-10-11T15:42:42Z</time>
<desc>lat.=44.517612, lon.=33.985214, Alt.=427.355713m. Speed=3.276000m/h.</desc>
<speed>0.910000</speed>
</trkpt>
<trkpt lat="44.517437" lon="33.984539">
<ele>432.4</ele>
<time>2011-10-11T15:43:27Z</time>
<desc>lat.=44.517437, lon.=33.984539, Alt.=435.121338m. Speed=3.564000m/h.</desc>
<speed>0.990000</speed>
</trkpt>
<trkpt lat="44.517178" lon="33.984344">
<ele>433.5</ele>
<time>2011-10-11T15:43:52Z</time>
<desc>lat.=44.517178, lon.=33.984344, Alt.=440.644775m. Speed=0.468000m/h.</desc>
<speed>0.130000</speed>
</trkpt>
<trkpt lat="44.517235" lon="33.984184">
<ele>433.4</ele>
<time>2011-10-11T15:44:12Z</time>
<desc>lat.=44.517235, lon.=33.984184, Alt.=440.793213m. Speed=0.144000m/h.</desc>
<speed>0.040000</speed>
</trkpt>
<trkpt lat="44.517075" lon="33.984154">
<ele>433.5</ele>
<time>2011-10-11T15:46:47Z</time>
<desc>lat.=44.517075, lon.=33.984154, Alt.=439.488525m. Speed=0.504000m/h.</desc>
<speed>0.140000</speed>
</trkpt>
<trkpt lat="44.517036" lon="33.983921">
<ele>434.6</ele>
<time>2011-10-11T15:49:07Z</time>
<desc>lat.=44.517036, lon.=33.983921, Alt.=438.965088m. Speed=0.684000m/h.</desc>
<speed>0.190000</speed>
</trkpt>
<trkpt lat="44.517284" lon="33.984108">
<ele>434.0</ele>
<time>2011-10-11T15:50:37Z</time>
<desc>lat.=44.517284, lon.=33.984108, Alt.=440.293213m. Speed=0.468000m/h.</desc>
<speed>0.130000</speed>
</trkpt>
<trkpt lat="44.517078" lon="33.984055">
<ele>433.8</ele>
<time>2011-10-11T15:52:27Z</time>
<desc>lat.=44.517078, lon.=33.984055, Alt.=442.301025m. Speed=0.720000m/h.</desc>
<speed>0.200000</speed>
</trkpt>
<trkpt lat="44.517075" lon="33.984200">
<ele>433.6</ele>
<time>2011-10-11T15:53:27Z</time>
<desc>lat.=44.517075, lon.=33.984200, Alt.=440.988525m. Speed=0.792000m/h.</desc>
<speed>0.220000</speed>
</trkpt>
</trkseg>
</trk>
</gpx>